DAL888X KDFW-LOWW
Flight info
| Callsign | DAL888X |
|---|---|
| Flight time | N/A |
| Altitude | 35000 |
| Route | FORCK3 FORCK ELD Q32 CRAMM BAZOO Q66 ALEAN KW42U HURTS CRPLR MGERK Q133 LEEAH CYN SAILN Q97 BEEKN EBONY N433B ELSIR 5050N 5140N 5130N 5120N DINIM ELSOX ARKIL SIDDI DAWLY L620 SAM M140 DVR UL9 KONAN UL607 KOK MATUG AMASI BOMBI DETEV DINKU BESNI ALUTU AKIMA MASUR |
| Aircraft | A339/H-SADE1E2E3GHIJ3J5M1P2RWXY/LB2D1 |
Departure
| Time | N/A |
|---|---|
| Airport | Dallas Fort Worth International Airport (KDFW) |
Arrival
| Time | 2026-04-25 22:38 |
|---|---|
| Airport | Vienna International Airport (LOWW) |
| Time | Latitude | Longitude | Altitude | Speed | Heading |
|---|---|---|---|---|---|
| 2026-04-25 12:35 | 33.44934 | -92.21736 | 34898 ft | 530 kts | 64° |
| 2026-04-25 12:36 | 33.46686 | -92.16925 | 34898 ft | 531 kts | 64° |
| 2026-04-25 12:36 | 33.49890 | -92.08104 | 34898 ft | 531 kts | 64° |
| 2026-04-25 12:37 | 33.53256 | -91.98813 | 34899 ft | 531 kts | 64° |
| 2026-04-25 12:37 | 33.56565 | -91.89660 | 34898 ft | 530 kts | 64° |
| 2026-04-25 12:38 | 33.59458 | -91.81628 | 34897 ft | 530 kts | 64° |
| 2026-04-25 12:38 | 33.62736 | -91.72505 | 34898 ft | 530 kts | 64° |
| 2026-04-25 12:39 | 33.66040 | -91.63283 | 34898 ft | 530 kts | 64° |
| 2026-04-25 12:39 | 33.69308 | -91.54139 | 34898 ft | 530 kts | 64° |
| 2026-04-25 12:40 | 33.72633 | -91.44812 | 34898 ft | 530 kts | 64° |
| 2026-04-25 12:40 | 33.75961 | -91.35448 | 34898 ft | 530 kts | 64° |
| 2026-04-25 12:41 | 33.78468 | -91.28376 | 34897 ft | 530 kts | 65° |
| 2026-04-25 12:41 | 33.81493 | -91.19821 | 34898 ft | 530 kts | 65° |
| 2026-04-25 12:42 | 33.84619 | -91.10956 | 34898 ft | 530 kts | 65° |
| 2026-04-25 12:42 | 33.86938 | -91.04365 | 34896 ft | 530 kts | 65° |
| 2026-04-25 12:43 | 33.89938 | -90.95808 | 34892 ft | 530 kts | 65° |
| 2026-04-25 12:43 | 33.94718 | -90.82137 | 34886 ft | 529 kts | 65° |
| 2026-04-25 12:44 | 33.98034 | -90.72614 | 34883 ft | 529 kts | 65° |
| 2026-04-25 12:45 | 34.02802 | -90.58861 | 34882 ft | 531 kts | 65° |
| 2026-04-25 12:45 | 34.07036 | -90.46611 | 34882 ft | 532 kts | 65° |
| 2026-04-25 12:46 | 34.09856 | -90.38419 | 34882 ft | 531 kts | 65° |
| 2026-04-25 12:46 | 34.12603 | -90.30417 | 34880 ft | 531 kts | 66° |
| 2026-04-25 12:47 | 34.15508 | -90.22266 | 34887 ft | 530 kts | 64° |
| 2026-04-25 12:47 | 34.18522 | -90.14199 | 34890 ft | 529 kts | 64° |
| 2026-04-25 12:48 | 34.21472 | -90.06267 | 34896 ft | 529 kts | 64° |
| 2026-04-25 12:48 | 34.24431 | -89.98251 | 34903 ft | 530 kts | 64° |
| 2026-04-25 12:49 | 34.27398 | -89.90176 | 34910 ft | 531 kts | 64° |
| 2026-04-25 12:49 | 34.30363 | -89.82085 | 34914 ft | 531 kts | 64° |
| 2026-04-25 12:50 | 34.33309 | -89.74022 | 34916 ft | 531 kts | 64° |
| 2026-04-25 12:50 | 34.36272 | -89.65891 | 34917 ft | 532 kts | 64° |
| 2026-04-25 12:51 | 34.39234 | -89.57747 | 34918 ft | 532 kts | 64° |
| 2026-04-25 12:51 | 34.42202 | -89.49565 | 34918 ft | 534 kts | 64° |
| 2026-04-25 12:52 | 34.45163 | -89.41380 | 34918 ft | 534 kts | 65° |
| 2026-04-25 12:52 | 34.48117 | -89.33191 | 34915 ft | 535 kts | 65° |
| 2026-04-25 12:53 | 34.51055 | -89.25030 | 34917 ft | 536 kts | 65° |
| 2026-04-25 12:53 | 34.53988 | -89.16856 | 34917 ft | 536 kts | 66° |
| 2026-04-25 12:54 | 34.56912 | -89.08691 | 34918 ft | 537 kts | 66° |
| 2026-04-25 12:54 | 34.59825 | -89.00531 | 34917 ft | 538 kts | 66° |
| 2026-04-25 12:55 | 34.62260 | -88.93691 | 34917 ft | 538 kts | 66° |
| 2026-04-25 12:55 | 34.66122 | -88.84322 | 34917 ft | 539 kts | 60° |
| 2026-04-25 12:56 | 34.69749 | -88.76480 | 34918 ft | 540 kts | 59° |
| 2026-04-25 12:56 | 34.73358 | -88.68695 | 34918 ft | 540 kts | 59° |
| 2026-04-25 12:57 | 34.76548 | -88.61762 | 34917 ft | 541 kts | 59° |
| 2026-04-25 12:57 | 34.80147 | -88.53910 | 34915 ft | 541 kts | 60° |
| 2026-04-25 12:58 | 34.83894 | -88.45706 | 34912 ft | 541 kts | 60° |
| 2026-04-25 12:58 | 34.87483 | -88.37831 | 34910 ft | 541 kts | 60° |
| 2026-04-25 12:59 | 34.90912 | -88.30290 | 34907 ft | 541 kts | 60° |
| 2026-04-25 12:59 | 34.94557 | -88.22256 | 34909 ft | 541 kts | 60° |
| 2026-04-25 13:00 | 34.96940 | -88.16992 | 34909 ft | 541 kts | 60° |
| 2026-04-25 13:00 | 35.01706 | -88.06445 | 34909 ft | 542 kts | 60° |
| 2026-04-25 13:01 | 35.05303 | -87.98462 | 34908 ft | 543 kts | 61° |
| 2026-04-25 13:01 | 35.08887 | -87.90490 | 34909 ft | 544 kts | 61° |
| 2026-04-25 13:02 | 35.12406 | -87.82641 | 34911 ft | 545 kts | 61° |
| 2026-04-25 13:02 | 35.15985 | -87.74639 | 34915 ft | 546 kts | 61° |
| 2026-04-25 13:03 | 35.19568 | -87.66612 | 34917 ft | 546 kts | 61° |
| 2026-04-25 13:03 | 35.23123 | -87.58628 | 34918 ft | 545 kts | 61° |
| 2026-04-25 13:04 | 35.26657 | -87.50673 | 34918 ft | 545 kts | 61° |
| 2026-04-25 13:04 | 35.30210 | -87.42658 | 34918 ft | 546 kts | 61° |
| 2026-04-25 13:05 | 35.33719 | -87.34719 | 34918 ft | 546 kts | 61° |
| 2026-04-25 13:05 | 35.37201 | -87.26828 | 34917 ft | 546 kts | 61° |
| 2026-04-25 13:06 | 35.40691 | -87.18893 | 34917 ft | 546 kts | 61° |
| 2026-04-25 13:06 | 35.44225 | -87.10845 | 34916 ft | 546 kts | 61° |
| 2026-04-25 13:07 | 35.47799 | -87.02683 | 34915 ft | 545 kts | 61° |
| 2026-04-25 13:07 | 35.51354 | -86.94546 | 34914 ft | 546 kts | 61° |
| 2026-04-25 13:08 | 35.54853 | -86.86520 | 34912 ft | 546 kts | 61° |
| 2026-04-25 13:08 | 35.58398 | -86.78369 | 34910 ft | 546 kts | 61° |
| 2026-04-25 13:09 | 35.61935 | -86.70216 | 34909 ft | 547 kts | 61° |
| 2026-04-25 13:09 | 35.65479 | -86.62024 | 34909 ft | 547 kts | 61° |
| 2026-04-25 13:10 | 35.69030 | -86.53798 | 34909 ft | 547 kts | 61° |
| 2026-04-25 13:10 | 35.72567 | -86.45585 | 34909 ft | 548 kts | 61° |
| 2026-04-25 13:11 | 35.76095 | -86.37374 | 34909 ft | 548 kts | 61° |
| 2026-04-25 13:11 | 35.79591 | -86.29218 | 34907 ft | 548 kts | 62° |
| 2026-04-25 13:12 | 35.83105 | -86.20996 | 34909 ft | 549 kts | 62° |
| 2026-04-25 13:12 | 35.86020 | -86.14161 | 34909 ft | 549 kts | 62° |
| 2026-04-25 13:13 | 35.90134 | -86.04490 | 34913 ft | 549 kts | 62° |
| 2026-04-25 13:13 | 35.93658 | -85.96174 | 34918 ft | 549 kts | 62° |
| 2026-04-25 13:14 | 35.96759 | -85.87686 | 34923 ft | 550 kts | 69° |
| 2026-04-25 13:14 | 35.99016 | -85.78858 | 34926 ft | 549 kts | 77° |
| 2026-04-25 13:15 | 36.00632 | -85.69760 | 34927 ft | 548 kts | 79° |
| 2026-04-25 13:15 | 36.02150 | -85.60767 | 34926 ft | 547 kts | 79° |
| 2026-04-25 13:16 | 36.03722 | -85.51629 | 34926 ft | 548 kts | 79° |
| 2026-04-25 13:16 | 36.05307 | -85.42482 | 34926 ft | 547 kts | 79° |
| 2026-04-25 13:17 | 36.06854 | -85.33508 | 34923 ft | 548 kts | 79° |
| 2026-04-25 13:17 | 36.08513 | -85.24431 | 34926 ft | 549 kts | 77° |
| 2026-04-25 13:18 | 36.10277 | -85.15514 | 34926 ft | 548 kts | 77° |
| 2026-04-25 13:18 | 36.12048 | -85.06508 | 34928 ft | 548 kts | 77° |
| 2026-04-25 13:19 | 36.13796 | -84.97496 | 34932 ft | 548 kts | 77° |
| 2026-04-25 13:19 | 36.15209 | -84.90157 | 34936 ft | 548 kts | 77° |
| 2026-04-25 13:20 | 36.17249 | -84.79510 | 34941 ft | 547 kts | 77° |
| 2026-04-25 13:20 | 36.18989 | -84.70383 | 34943 ft | 547 kts | 77° |
| 2026-04-25 13:21 | 36.20717 | -84.61282 | 34944 ft | 548 kts | 77° |
| 2026-04-25 13:21 | 36.22436 | -84.52176 | 34945 ft | 547 kts | 77° |
| 2026-04-25 13:22 | 36.24148 | -84.43084 | 34945 ft | 547 kts | 77° |
| 2026-04-25 13:23 | 36.26652 | -84.29705 | 34942 ft | 547 kts | 77° |
| 2026-04-25 13:23 | 36.28335 | -84.20663 | 34944 ft | 547 kts | 77° |
| 2026-04-25 13:24 | 36.29997 | -84.11690 | 34946 ft | 548 kts | 77° |
| 2026-04-25 13:24 | 36.31685 | -84.02539 | 34950 ft | 548 kts | 77° |
| 2026-04-25 13:25 | 36.33355 | -83.93437 | 34956 ft | 547 kts | 77° |
| 2026-04-25 13:25 | 36.35007 | -83.84396 | 34960 ft | 547 kts | 77° |
| 2026-04-25 13:26 | 36.36643 | -83.75404 | 34963 ft | 546 kts | 77° |
| 2026-04-25 13:26 | 36.38300 | -83.66258 | 34963 ft | 546 kts | 77° |
| 2026-04-25 13:27 | 36.39947 | -83.57128 | 34964 ft | 545 kts | 77° |
| 2026-04-25 13:27 | 36.41591 | -83.47959 | 34964 ft | 544 kts | 77° |
| 2026-04-25 13:28 | 36.43217 | -83.38851 | 34964 ft | 543 kts | 77° |
| 2026-04-25 13:28 | 36.44811 | -83.29882 | 34962 ft | 542 kts | 78° |
| 2026-04-25 13:29 | 36.46403 | -83.20875 | 34964 ft | 541 kts | 78° |
| 2026-04-25 13:29 | 36.48000 | -83.11797 | 34964 ft | 540 kts | 78° |
| 2026-04-25 13:30 | 36.50372 | -82.98215 | 34964 ft | 538 kts | 78° |
| 2026-04-25 13:31 | 36.52697 | -82.84811 | 34966 ft | 536 kts | 78° |
| 2026-04-25 13:31 | 36.54247 | -82.75822 | 34967 ft | 535 kts | 78° |
| 2026-04-25 13:32 | 36.55785 | -82.66861 | 34969 ft | 533 kts | 78° |
| 2026-04-25 13:32 | 36.57316 | -82.57892 | 34971 ft | 532 kts | 78° |
| 2026-04-25 13:33 | 36.58840 | -82.48928 | 34973 ft | 531 kts | 78° |
| 2026-04-25 13:33 | 36.60351 | -82.39993 | 34974 ft | 530 kts | 78° |
| 2026-04-25 13:34 | 36.61831 | -82.31203 | 34974 ft | 529 kts | 78° |
| 2026-04-25 13:34 | 36.63308 | -82.22393 | 34977 ft | 529 kts | 78° |
| 2026-04-25 13:35 | 36.64789 | -82.13505 | 34980 ft | 529 kts | 78° |
| 2026-04-25 13:35 | 36.66263 | -82.04618 | 34981 ft | 528 kts | 78° |
| 2026-04-25 13:36 | 36.67735 | -81.95701 | 34984 ft | 527 kts | 78° |
| 2026-04-25 13:36 | 36.69202 | -81.86770 | 34987 ft | 525 kts | 78° |
| 2026-04-25 13:37 | 36.70652 | -81.77909 | 34992 ft | 525 kts | 78° |
| 2026-04-25 13:37 | 36.72096 | -81.69037 | 34996 ft | 525 kts | 78° |
| 2026-04-25 13:38 | 36.73544 | -81.60138 | 34999 ft | 525 kts | 78° |
| 2026-04-25 13:38 | 36.75062 | -81.51287 | 34999 ft | 526 kts | 77° |
| 2026-04-25 13:39 | 36.76593 | -81.42405 | 35000 ft | 526 kts | 77° |
| 2026-04-25 13:39 | 36.78096 | -81.33614 | 34999 ft | 526 kts | 78° |
| 2026-04-25 13:40 | 36.79592 | -81.24798 | 35000 ft | 526 kts | 78° |
| 2026-04-25 13:40 | 36.81078 | -81.15987 | 35001 ft | 526 kts | 78° |
| 2026-04-25 13:41 | 36.82569 | -81.07098 | 35001 ft | 526 kts | 78° |
| 2026-04-25 13:41 | 36.84059 | -80.98186 | 34997 ft | 526 kts | 78° |
| 2026-04-25 13:42 | 36.85539 | -80.89281 | 34989 ft | 526 kts | 78° |
| 2026-04-25 13:42 | 36.86998 | -80.80464 | 34979 ft | 525 kts | 78° |
| 2026-04-25 13:43 | 36.88452 | -80.71630 | 34972 ft | 525 kts | 78° |
| 2026-04-25 13:43 | 36.89900 | -80.62791 | 34969 ft | 524 kts | 77° |
| 2026-04-25 13:44 | 36.91342 | -80.53949 | 34966 ft | 524 kts | 77° |
| 2026-04-25 13:44 | 36.92768 | -80.45164 | 34965 ft | 524 kts | 77° |
| 2026-04-25 13:45 | 36.94193 | -80.36341 | 34965 ft | 524 kts | 77° |
| 2026-04-25 13:45 | 36.95577 | -80.27727 | 34964 ft | 524 kts | 78° |
| 2026-04-25 13:46 | 36.96999 | -80.18837 | 34965 ft | 524 kts | 78° |
| 2026-04-25 13:46 | 36.98400 | -80.10027 | 34965 ft | 524 kts | 78° |
| 2026-04-25 13:47 | 36.99809 | -80.01114 | 34957 ft | 525 kts | 78° |
| 2026-04-25 13:47 | 37.01203 | -79.92495 | 34943 ft | 523 kts | 77° |
| 2026-04-25 13:48 | 37.02667 | -79.83651 | 34926 ft | 522 kts | 77° |
| 2026-04-25 13:48 | 37.04124 | -79.74783 | 34913 ft | 522 kts | 77° |
| 2026-04-25 13:49 | 37.05561 | -79.65970 | 34906 ft | 523 kts | 77° |
| 2026-04-25 13:49 | 37.06997 | -79.57096 | 34902 ft | 522 kts | 77° |
| 2026-04-25 13:50 | 37.08424 | -79.48239 | 34900 ft | 522 kts | 77° |
| 2026-04-25 13:50 | 37.09839 | -79.39407 | 34899 ft | 522 kts | 77° |
| 2026-04-25 13:51 | 37.11200 | -79.30875 | 34898 ft | 522 kts | 78° |
| 2026-04-25 13:51 | 37.12595 | -79.22084 | 34899 ft | 522 kts | 77° |
| 2026-04-25 13:52 | 37.13997 | -79.13201 | 34900 ft | 522 kts | 77° |
| 2026-04-25 13:52 | 37.15390 | -79.04337 | 34902 ft | 522 kts | 77° |
| 2026-04-25 13:53 | 37.16762 | -78.95554 | 34903 ft | 522 kts | 77° |
| 2026-04-25 13:53 | 37.18135 | -78.86733 | 34905 ft | 521 kts | 77° |
| 2026-04-25 13:54 | 37.19503 | -78.77885 | 34905 ft | 520 kts | 77° |
| 2026-04-25 13:54 | 37.20863 | -78.69052 | 34905 ft | 520 kts | 77° |
| 2026-04-25 13:55 | 37.22203 | -78.60294 | 34904 ft | 520 kts | 77° |
| 2026-04-25 13:55 | 37.23558 | -78.51402 | 34904 ft | 521 kts | 77° |
| 2026-04-25 13:56 | 37.24888 | -78.42624 | 34903 ft | 520 kts | 77° |
| 2026-04-25 13:56 | 37.26212 | -78.33841 | 34901 ft | 520 kts | 78° |
| 2026-04-25 13:57 | 37.27524 | -78.25088 | 34901 ft | 520 kts | 77° |
| 2026-04-25 13:57 | 37.28848 | -78.16209 | 34901 ft | 521 kts | 77° |
| 2026-04-25 13:58 | 37.30159 | -78.07377 | 34903 ft | 521 kts | 77° |
| 2026-04-25 13:58 | 37.31468 | -77.98502 | 34908 ft | 521 kts | 77° |
| 2026-04-25 13:59 | 37.32768 | -77.89624 | 34912 ft | 519 kts | 77° |
| 2026-04-25 13:59 | 37.34055 | -77.80823 | 34915 ft | 519 kts | 77° |
| 2026-04-25 14:00 | 37.35338 | -77.71989 | 34917 ft | 519 kts | 77° |
| 2026-04-25 14:00 | 37.36600 | -77.63246 | 34918 ft | 519 kts | 77° |
| 2026-04-25 14:01 | 37.37867 | -77.54424 | 34918 ft | 519 kts | 77° |
| 2026-04-25 14:01 | 37.39129 | -77.45586 | 34918 ft | 518 kts | 77° |
| 2026-04-25 14:02 | 37.40384 | -77.36744 | 34918 ft | 518 kts | 77° |
| 2026-04-25 14:02 | 37.41612 | -77.28051 | 34917 ft | 518 kts | 78° |
| 2026-04-25 14:03 | 37.42812 | -77.19502 | 34917 ft | 518 kts | 77° |
| 2026-04-25 14:03 | 37.44044 | -77.10684 | 34918 ft | 517 kts | 77° |
| 2026-04-25 14:04 | 37.45272 | -77.01836 | 34918 ft | 518 kts | 77° |
| 2026-04-25 14:04 | 37.46611 | -76.92958 | 34918 ft | 516 kts | 74° |
| 2026-04-25 14:05 | 37.48232 | -76.84220 | 34920 ft | 516 kts | 73° |
| 2026-04-25 14:05 | 37.49869 | -76.75508 | 34922 ft | 516 kts | 73° |
| 2026-04-25 14:06 | 37.51503 | -76.66720 | 34925 ft | 517 kts | 73° |
| 2026-04-25 14:06 | 37.53127 | -76.57920 | 34926 ft | 517 kts | 73° |
| 2026-04-25 14:07 | 37.54734 | -76.49172 | 34926 ft | 517 kts | 73° |
| 2026-04-25 14:07 | 37.56344 | -76.40362 | 34926 ft | 517 kts | 73° |
| 2026-04-25 14:08 | 37.57948 | -76.31547 | 34924 ft | 517 kts | 73° |
| 2026-04-25 14:08 | 37.60271 | -76.23088 | 34925 ft | 509 kts | 58° |
| 2026-04-25 14:09 | 37.64172 | -76.15827 | 34926 ft | 499 kts | 43° |
| 2026-04-25 14:09 | 37.69304 | -76.10189 | 34926 ft | 488 kts | 28° |
| 2026-04-25 14:10 | 37.75066 | -76.05886 | 34927 ft | 485 kts | 24° |
| 2026-04-25 14:10 | 37.80865 | -76.01723 | 34928 ft | 485 kts | 24° |
| 2026-04-25 14:11 | 37.86625 | -75.97540 | 34932 ft | 485 kts | 24° |
| 2026-04-25 14:11 | 37.92396 | -75.93316 | 34940 ft | 485 kts | 25° |
| 2026-04-25 14:12 | 37.98176 | -75.89068 | 34949 ft | 485 kts | 25° |
| 2026-04-25 14:12 | 38.03886 | -75.84861 | 34957 ft | 485 kts | 25° |
| 2026-04-25 14:13 | 38.09469 | -75.80739 | 34963 ft | 485 kts | 25° |
| 2026-04-25 14:13 | 38.14833 | -75.76771 | 34968 ft | 485 kts | 24° |
| 2026-04-25 14:14 | 38.20602 | -75.72498 | 34970 ft | 485 kts | 24° |
| 2026-04-25 14:14 | 38.26394 | -75.68200 | 34972 ft | 485 kts | 24° |
| 2026-04-25 14:15 | 38.32151 | -75.63918 | 34975 ft | 485 kts | 24° |
| 2026-04-25 14:15 | 38.37883 | -75.59649 | 34983 ft | 484 kts | 24° |
| 2026-04-25 14:16 | 38.43623 | -75.55365 | 34992 ft | 484 kts | 24° |
| 2026-04-25 14:16 | 38.49382 | -75.51059 | 35000 ft | 484 kts | 24° |
| 2026-04-25 14:17 | 38.55071 | -75.46797 | 35005 ft | 484 kts | 24° |
| 2026-04-25 14:17 | 38.60773 | -75.42519 | 35007 ft | 484 kts | 24° |
| 2026-04-25 14:18 | 38.66391 | -75.38296 | 35009 ft | 483 kts | 24° |
| 2026-04-25 14:18 | 38.71961 | -75.34100 | 35006 ft | 483 kts | 24° |
| 2026-04-25 14:19 | 38.77713 | -75.29766 | 35008 ft | 483 kts | 24° |
| 2026-04-25 14:19 | 38.83510 | -75.25629 | 35010 ft | 482 kts | 22° |
| 2026-04-25 14:20 | 38.89359 | -75.21510 | 35009 ft | 481 kts | 22° |
| 2026-04-25 14:20 | 38.95186 | -75.17381 | 35010 ft | 481 kts | 22° |
| 2026-04-25 14:21 | 39.00991 | -75.13247 | 35012 ft | 481 kts | 22° |
| 2026-04-25 14:21 | 39.06807 | -75.09097 | 35015 ft | 481 kts | 22° |
| 2026-04-25 14:22 | 39.12501 | -75.05024 | 35021 ft | 481 kts | 22° |
| 2026-04-25 14:22 | 39.18093 | -75.01014 | 35025 ft | 480 kts | 22° |
| 2026-04-25 14:23 | 39.23758 | -74.96933 | 35031 ft | 481 kts | 24° |
| 2026-04-25 14:23 | 39.28651 | -74.92901 | 35038 ft | 485 kts | 28° |
| 2026-04-25 14:24 | 39.33385 | -74.88531 | 35045 ft | 485 kts | 29° |
| 2026-04-25 14:24 | 39.38340 | -74.83894 | 35052 ft | 484 kts | 29° |
| 2026-04-25 14:25 | 39.43190 | -74.79358 | 35057 ft | 484 kts | 29° |
| 2026-04-25 14:25 | 39.48157 | -74.74713 | 35060 ft | 483 kts | 28° |
| 2026-04-25 14:26 | 39.53088 | -74.70098 | 35061 ft | 483 kts | 28° |
| 2026-04-25 14:26 | 39.58293 | -74.65217 | 35064 ft | 482 kts | 28° |
| 2026-04-25 14:27 | 39.63261 | -74.60550 | 35067 ft | 482 kts | 28° |
| 2026-04-25 14:27 | 39.68021 | -74.56071 | 35071 ft | 481 kts | 28° |
| 2026-04-25 14:28 | 39.72987 | -74.51382 | 35076 ft | 481 kts | 29° |
| 2026-04-25 14:28 | 39.77428 | -74.46610 | 35079 ft | 487 kts | 35° |
| 2026-04-25 14:29 | 39.81824 | -74.40710 | 35082 ft | 494 kts | 41° |
| 2026-04-25 14:29 | 39.85523 | -74.34451 | 35081 ft | 500 kts | 49° |
| 2026-04-25 14:30 | 39.88849 | -74.27444 | 35083 ft | 505 kts | 52° |
| 2026-04-25 14:30 | 39.93563 | -74.16862 | 35083 ft | 504 kts | 52° |
| 2026-04-25 14:31 | 39.97076 | -74.08993 | 35084 ft | 504 kts | 52° |
| 2026-04-25 14:31 | 40.00723 | -74.00835 | 35087 ft | 504 kts | 52° |
| 2026-04-25 14:32 | 40.04437 | -73.92510 | 35094 ft | 504 kts | 52° |
| 2026-04-25 14:32 | 40.08452 | -73.83488 | 35101 ft | 504 kts | 52° |
| 2026-04-25 14:33 | 40.12172 | -73.75105 | 35108 ft | 504 kts | 52° |
| 2026-04-25 14:33 | 40.16003 | -73.66441 | 35110 ft | 503 kts | 52° |
| 2026-04-25 14:34 | 40.19875 | -73.57668 | 35111 ft | 503 kts | 51° |
| 2026-04-25 14:34 | 40.23678 | -73.50191 | 35113 ft | 494 kts | 44° |
| 2026-04-25 14:35 | 40.28043 | -73.43587 | 35117 ft | 485 kts | 37° |
| 2026-04-25 14:35 | 40.32925 | -73.37838 | 35121 ft | 475 kts | 30° |
| 2026-04-25 14:36 | 40.38030 | -73.32870 | 35121 ft | 472 kts | 28° |
| 2026-04-25 14:36 | 40.43207 | -73.27955 | 35127 ft | 472 kts | 28° |
| 2026-04-25 14:37 | 40.48217 | -73.23168 | 35128 ft | 471 kts | 28° |
| 2026-04-25 14:37 | 40.53491 | -73.18105 | 35129 ft | 471 kts | 27° |
| 2026-04-25 14:38 | 40.58672 | -73.13119 | 35131 ft | 469 kts | 27° |
| 2026-04-25 14:38 | 40.63821 | -73.08150 | 35134 ft | 468 kts | 27° |
| 2026-04-25 14:39 | 40.68598 | -73.03532 | 35137 ft | 468 kts | 27° |
| 2026-04-25 14:39 | 40.73907 | -72.98390 | 35142 ft | 468 kts | 27° |
| 2026-04-25 14:40 | 40.79075 | -72.93374 | 35145 ft | 467 kts | 27° |
| 2026-04-25 14:40 | 40.84195 | -72.88394 | 35147 ft | 466 kts | 27° |
| 2026-04-25 14:41 | 40.89349 | -72.83373 | 35148 ft | 466 kts | 27° |
| 2026-04-25 14:41 | 40.94507 | -72.78378 | 35148 ft | 465 kts | 26° |
| 2026-04-25 14:42 | 40.98891 | -72.74367 | 35148 ft | 462 kts | 25° |
| 2026-04-25 14:42 | 41.04976 | -72.68833 | 35148 ft | 462 kts | 25° |
| 2026-04-25 14:43 | 41.10177 | -72.64069 | 35148 ft | 462 kts | 25° |
| 2026-04-25 14:43 | 41.14841 | -72.59780 | 35150 ft | 462 kts | 25° |
| 2026-04-25 14:44 | 41.19546 | -72.55442 | 35149 ft | 460 kts | 25° |
| 2026-04-25 14:44 | 41.24441 | -72.50933 | 35149 ft | 458 kts | 24° |
| 2026-04-25 14:45 | 41.29366 | -72.46912 | 35148 ft | 451 kts | 19° |
| 2026-04-25 14:45 | 41.34471 | -72.43390 | 35148 ft | 448 kts | 17° |
| 2026-04-25 14:46 | 41.39429 | -72.40073 | 35148 ft | 447 kts | 17° |
| 2026-04-25 14:46 | 41.45043 | -72.36310 | 35148 ft | 446 kts | 17° |
| 2026-04-25 14:47 | 41.48778 | -72.33798 | 35145 ft | 446 kts | 18° |
| 2026-04-25 14:47 | 41.54155 | -72.30174 | 35147 ft | 446 kts | 18° |
| 2026-04-25 14:48 | 41.58726 | -72.27086 | 35148 ft | 445 kts | 18° |
| 2026-04-25 14:48 | 41.63702 | -72.23721 | 35149 ft | 444 kts | 18° |
| 2026-04-25 14:49 | 41.68526 | -72.20451 | 35149 ft | 443 kts | 18° |
| 2026-04-25 14:49 | 41.73595 | -72.17010 | 35149 ft | 442 kts | 18° |
| 2026-04-25 14:50 | 41.78616 | -72.13596 | 35149 ft | 441 kts | 17° |
| 2026-04-25 14:50 | 41.83735 | -72.10108 | 35151 ft | 441 kts | 17° |
| 2026-04-25 14:51 | 41.88868 | -72.06605 | 35152 ft | 441 kts | 17° |
| 2026-04-25 14:51 | 41.94098 | -72.03030 | 35153 ft | 441 kts | 17° |
| 2026-04-25 14:52 | 41.99254 | -71.99499 | 35153 ft | 441 kts | 17° |
| 2026-04-25 14:52 | 42.03881 | -71.96324 | 35153 ft | 441 kts | 17° |
| 2026-04-25 14:53 | 42.10247 | -71.91908 | 35152 ft | 443 kts | 19° |
| 2026-04-25 14:53 | 42.15059 | -71.87994 | 35153 ft | 450 kts | 24° |
| 2026-04-25 14:54 | 42.19606 | -71.83564 | 35151 ft | 455 kts | 27° |
| 2026-04-25 14:54 | 42.24534 | -71.78448 | 35150 ft | 455 kts | 27° |
| 2026-04-25 14:55 | 42.29655 | -71.73109 | 35150 ft | 455 kts | 27° |
| 2026-04-25 14:55 | 42.34784 | -71.67756 | 35150 ft | 455 kts | 27° |
| 2026-04-25 14:56 | 42.39880 | -71.62430 | 35150 ft | 454 kts | 27° |
| 2026-04-25 14:56 | 42.45130 | -71.56931 | 35150 ft | 453 kts | 27° |
| 2026-04-25 14:57 | 42.50384 | -71.51420 | 35150 ft | 453 kts | 27° |
| 2026-04-25 14:57 | 42.55589 | -71.45946 | 35150 ft | 453 kts | 27° |
| 2026-04-25 14:58 | 42.60797 | -71.40458 | 35149 ft | 453 kts | 27° |
| 2026-04-25 14:58 | 42.65856 | -71.35118 | 35147 ft | 453 kts | 27° |
| 2026-04-25 14:59 | 42.70468 | -71.30236 | 35144 ft | 454 kts | 27° |
| 2026-04-25 14:59 | 42.75538 | -71.24861 | 35143 ft | 452 kts | 27° |
| 2026-04-25 15:00 | 42.80613 | -71.19467 | 35142 ft | 452 kts | 27° |
| 2026-04-25 15:00 | 42.85656 | -71.14097 | 35140 ft | 452 kts | 27° |
| 2026-04-25 15:01 | 42.90513 | -71.09100 | 35139 ft | 447 kts | 24° |
| 2026-04-25 15:01 | 42.95687 | -71.04666 | 35139 ft | 440 kts | 19° |
| 2026-04-25 15:02 | 43.00836 | -71.00723 | 35139 ft | 439 kts | 19° |
| 2026-04-25 15:02 | 43.06168 | -70.96665 | 35139 ft | 439 kts | 19° |
| 2026-04-25 15:03 | 43.11287 | -70.92755 | 35145 ft | 439 kts | 19° |
| 2026-04-25 15:03 | 43.16597 | -70.88686 | 35143 ft | 439 kts | 19° |
| 2026-04-25 15:04 | 43.21814 | -70.84680 | 35143 ft | 439 kts | 19° |
| 2026-04-25 15:04 | 43.27057 | -70.80516 | 35144 ft | 444 kts | 22° |
| 2026-04-25 15:05 | 43.32021 | -70.75446 | 35146 ft | 456 kts | 30° |
| 2026-04-25 15:06 | 43.38559 | -70.65968 | 35148 ft | 475 kts | 41° |
| 2026-04-25 15:06 | 43.42187 | -70.58601 | 35149 ft | 484 kts | 46° |
| 2026-04-25 15:07 | 43.45671 | -70.50939 | 35148 ft | 484 kts | 46° |
| 2026-04-25 15:07 | 43.49148 | -70.43273 | 35148 ft | 484 kts | 46° |
| 2026-04-25 15:08 | 43.52580 | -70.35711 | 35149 ft | 485 kts | 46° |
| 2026-04-25 15:08 | 43.56037 | -70.28086 | 35147 ft | 485 kts | 47° |
| 2026-04-25 15:09 | 43.59543 | -70.20335 | 35148 ft | 485 kts | 47° |
| 2026-04-25 15:09 | 43.64821 | -70.08635 | 35148 ft | 485 kts | 47° |
| 2026-04-25 15:10 | 43.68345 | -70.00796 | 35148 ft | 485 kts | 47° |
| 2026-04-25 15:11 | 43.73651 | -69.88956 | 35145 ft | 486 kts | 47° |
| 2026-04-25 15:11 | 43.77169 | -69.81077 | 35142 ft | 486 kts | 47° |
| 2026-04-25 15:12 | 43.82454 | -69.69199 | 35136 ft | 486 kts | 47° |
| 2026-04-25 15:12 | 43.85401 | -69.62558 | 35134 ft | 486 kts | 47° |
| 2026-04-25 15:13 | 43.91268 | -69.49286 | 35131 ft | 486 kts | 47° |
| 2026-04-25 15:14 | 43.94778 | -69.41319 | 35130 ft | 486 kts | 47° |
| 2026-04-25 15:14 | 43.98283 | -69.33341 | 35127 ft | 487 kts | 48° |
| 2026-04-25 15:15 | 44.01787 | -69.25359 | 35131 ft | 486 kts | 49° |
| 2026-04-25 15:15 | 44.05248 | -69.17441 | 35131 ft | 486 kts | 50° |
| 2026-04-25 15:16 | 44.08708 | -69.09489 | 35132 ft | 486 kts | 50° |
| 2026-04-25 15:16 | 44.13850 | -68.97637 | 35128 ft | 485 kts | 51° |
| 2026-04-25 15:17 | 44.19032 | -68.85647 | 35117 ft | 484 kts | 51° |
| 2026-04-25 15:18 | 44.22495 | -68.77611 | 35111 ft | 484 kts | 51° |
| 2026-04-25 15:18 | 44.27656 | -68.65584 | 35105 ft | 484 kts | 51° |
| 2026-04-25 15:19 | 44.30524 | -68.58881 | 35104 ft | 483 kts | 51° |
| 2026-04-25 15:19 | 44.34476 | -68.49617 | 35103 ft | 483 kts | 51° |
| 2026-04-25 15:20 | 44.37887 | -68.41599 | 35102 ft | 483 kts | 52° |
| 2026-04-25 15:20 | 44.41285 | -68.33585 | 35099 ft | 483 kts | 52° |
| 2026-04-25 15:21 | 44.44687 | -68.25545 | 35098 ft | 484 kts | 52° |
| 2026-04-25 15:21 | 44.48085 | -68.17486 | 35097 ft | 484 kts | 52° |
| 2026-04-25 15:22 | 44.51468 | -68.09441 | 35095 ft | 484 kts | 52° |
| 2026-04-25 15:22 | 44.54825 | -68.01439 | 35089 ft | 484 kts | 52° |
| 2026-04-25 15:23 | 44.58199 | -67.93385 | 35081 ft | 483 kts | 53° |
| 2026-04-25 15:23 | 44.61562 | -67.85318 | 35072 ft | 483 kts | 53° |
| 2026-04-25 15:24 | 44.64892 | -67.77309 | 35064 ft | 483 kts | 53° |
| 2026-04-25 15:24 | 44.67676 | -67.70598 | 35061 ft | 483 kts | 53° |
| 2026-04-25 15:25 | 44.71528 | -67.61281 | 35058 ft | 483 kts | 54° |
| 2026-04-25 15:25 | 44.74830 | -67.53277 | 35057 ft | 482 kts | 54° |
| 2026-04-25 15:26 | 44.78155 | -67.45192 | 35057 ft | 483 kts | 54° |
| 2026-04-25 15:26 | 44.81439 | -67.37184 | 35056 ft | 482 kts | 54° |
| 2026-04-25 15:27 | 44.84559 | -67.29545 | 35050 ft | 484 kts | 54° |
| 2026-04-25 15:28 | 44.89545 | -67.17319 | 35057 ft | 489 kts | 55° |
| 2026-04-25 15:28 | 44.92885 | -67.09030 | 35056 ft | 490 kts | 56° |
| 2026-04-25 15:29 | 44.96202 | -67.00712 | 35052 ft | 490 kts | 56° |
| 2026-04-25 15:29 | 44.99529 | -66.92349 | 35047 ft | 489 kts | 56° |
| 2026-04-25 15:30 | 45.02859 | -66.83957 | 35043 ft | 490 kts | 56° |
| 2026-04-25 15:30 | 45.06167 | -66.75594 | 35041 ft | 490 kts | 56° |
| 2026-04-25 15:31 | 45.09475 | -66.67213 | 35039 ft | 489 kts | 56° |
| 2026-04-25 15:31 | 45.12730 | -66.58939 | 35040 ft | 489 kts | 56° |
| 2026-04-25 15:32 | 45.16015 | -66.50565 | 35040 ft | 488 kts | 57° |
| 2026-04-25 15:32 | 45.19272 | -66.42237 | 35040 ft | 488 kts | 57° |
| 2026-04-25 15:33 | 45.24124 | -66.29779 | 35039 ft | 487 kts | 58° |
| 2026-04-25 15:33 | 45.27366 | -66.21426 | 35039 ft | 487 kts | 58° |
| 2026-04-25 15:34 | 45.30602 | -66.13063 | 35038 ft | 486 kts | 58° |
| 2026-04-25 15:34 | 45.33307 | -66.06054 | 35036 ft | 486 kts | 58° |
| 2026-04-25 15:35 | 45.38685 | -65.92068 | 35032 ft | 484 kts | 58° |
| 2026-04-25 15:36 | 45.43486 | -65.79510 | 35029 ft | 484 kts | 59° |
| 2026-04-25 15:36 | 45.46669 | -65.71160 | 35029 ft | 484 kts | 59° |
| 2026-04-25 15:37 | 45.49867 | -65.62740 | 35028 ft | 484 kts | 59° |
| 2026-04-25 15:37 | 45.53020 | -65.54414 | 35027 ft | 484 kts | 59° |
| 2026-04-25 15:38 | 45.56196 | -65.46004 | 35025 ft | 484 kts | 59° |
| 2026-04-25 15:38 | 45.59374 | -65.37560 | 35023 ft | 484 kts | 58° |
| 2026-04-25 15:39 | 45.62490 | -65.29256 | 35022 ft | 484 kts | 59° |
| 2026-04-25 15:39 | 45.65620 | -65.20891 | 35020 ft | 484 kts | 59° |
| 2026-04-25 15:40 | 45.68243 | -65.13863 | 35020 ft | 484 kts | 59° |
| 2026-04-25 15:40 | 45.71908 | -65.04003 | 35020 ft | 483 kts | 59° |
| 2026-04-25 15:41 | 45.75043 | -64.95546 | 35019 ft | 483 kts | 59° |
| 2026-04-25 15:41 | 45.78173 | -64.87072 | 35016 ft | 483 kts | 59° |
| 2026-04-25 15:42 | 45.81304 | -64.78572 | 35011 ft | 483 kts | 59° |
| 2026-04-25 15:42 | 45.84414 | -64.70105 | 35007 ft | 482 kts | 59° |
| 2026-04-25 15:43 | 45.87522 | -64.61614 | 35004 ft | 482 kts | 59° |
| 2026-04-25 15:43 | 45.90558 | -64.53295 | 35002 ft | 482 kts | 60° |
| 2026-04-25 15:44 | 45.93651 | -64.44796 | 35002 ft | 482 kts | 60° |
| 2026-04-25 15:44 | 45.96734 | -64.36289 | 35001 ft | 481 kts | 60° |
| 2026-04-25 15:45 | 45.99796 | -64.27816 | 35002 ft | 482 kts | 60° |
| 2026-04-25 15:45 | 46.02353 | -64.20720 | 35002 ft | 481 kts | 60° |
| 2026-04-25 15:46 | 46.05927 | -64.10767 | 35002 ft | 481 kts | 60° |
| 2026-04-25 15:46 | 46.08989 | -64.02216 | 35002 ft | 481 kts | 60° |
| 2026-04-25 15:47 | 46.12036 | -63.93677 | 34997 ft | 481 kts | 60° |
| 2026-04-25 15:47 | 46.15092 | -63.85090 | 34986 ft | 481 kts | 60° |
| 2026-04-25 15:48 | 46.18129 | -63.76526 | 34975 ft | 481 kts | 60° |
| 2026-04-25 15:48 | 46.21160 | -63.67954 | 34968 ft | 481 kts | 60° |
| 2026-04-25 15:49 | 46.24185 | -63.59369 | 34965 ft | 480 kts | 60° |
| 2026-04-25 15:49 | 46.27197 | -63.50797 | 34964 ft | 480 kts | 60° |
| 2026-04-25 15:50 | 46.30194 | -63.42239 | 34964 ft | 480 kts | 60° |
| 2026-04-25 15:50 | 46.33191 | -63.33651 | 34964 ft | 480 kts | 61° |
| 2026-04-25 15:51 | 46.35692 | -63.26461 | 34964 ft | 480 kts | 61° |
| 2026-04-25 15:51 | 46.39175 | -63.16424 | 34964 ft | 479 kts | 61° |
| 2026-04-25 15:52 | 46.42145 | -63.07832 | 34963 ft | 479 kts | 61° |
| 2026-04-25 15:52 | 46.45125 | -62.99188 | 34961 ft | 479 kts | 61° |
| 2026-04-25 15:53 | 46.48086 | -62.90568 | 34955 ft | 479 kts | 61° |
| 2026-04-25 15:53 | 46.51043 | -62.81933 | 34947 ft | 479 kts | 61° |
| 2026-04-25 15:54 | 46.53992 | -62.73288 | 34942 ft | 479 kts | 61° |
| 2026-04-25 15:54 | 46.56944 | -62.64608 | 34938 ft | 479 kts | 61° |
| 2026-04-25 15:55 | 46.59884 | -62.55933 | 34937 ft | 479 kts | 61° |
| 2026-04-25 15:55 | 46.62816 | -62.47253 | 34937 ft | 479 kts | 61° |
| 2026-04-25 15:56 | 46.65744 | -62.38553 | 34936 ft | 479 kts | 61° |
| 2026-04-25 15:56 | 46.68653 | -62.29882 | 34936 ft | 479 kts | 62° |
| 2026-04-25 15:57 | 46.71500 | -62.21375 | 34937 ft | 480 kts | 62° |
| 2026-04-25 15:57 | 46.74409 | -62.12651 | 34936 ft | 480 kts | 62° |
| 2026-04-25 15:58 | 46.77289 | -62.03982 | 34930 ft | 480 kts | 62° |
| 2026-04-25 15:58 | 46.80169 | -61.95281 | 34919 ft | 479 kts | 62° |
| 2026-04-25 15:59 | 46.83046 | -61.86565 | 34905 ft | 479 kts | 62° |
| 2026-04-25 15:59 | 46.85927 | -61.77808 | 34895 ft | 479 kts | 62° |
| 2026-04-25 16:00 | 46.87836 | -61.71987 | 34890 ft | 479 kts | 62° |
| 2026-04-25 16:00 | 46.91646 | -61.60324 | 34884 ft | 478 kts | 62° |
| 2026-04-25 16:01 | 46.94498 | -61.51563 | 34882 ft | 478 kts | 62° |
| 2026-04-25 16:01 | 46.97356 | -61.42757 | 34881 ft | 478 kts | 62° |
| 2026-04-25 16:02 | 47.00189 | -61.33991 | 34881 ft | 478 kts | 62° |
| 2026-04-25 16:02 | 47.03019 | -61.25209 | 34882 ft | 478 kts | 62° |
| 2026-04-25 16:03 | 47.05852 | -61.16388 | 34882 ft | 478 kts | 62° |
| 2026-04-25 16:03 | 47.08669 | -61.07581 | 34874 ft | 478 kts | 62° |
| 2026-04-25 16:04 | 47.11479 | -60.98770 | 34856 ft | 478 kts | 62° |
| 2026-04-25 16:04 | 47.14281 | -60.89954 | 34831 ft | 477 kts | 62° |
| 2026-04-25 16:05 | 47.17079 | -60.81117 | 34814 ft | 477 kts | 62° |
| 2026-04-25 16:06 | 47.21257 | -60.67867 | 34802 ft | 477 kts | 62° |
| 2026-04-25 16:06 | 47.24036 | -60.59017 | 34799 ft | 477 kts | 62° |
| 2026-04-25 16:07 | 47.26812 | -60.50140 | 34798 ft | 477 kts | 62° |
| 2026-04-25 16:07 | 47.29571 | -60.41287 | 34797 ft | 476 kts | 62° |
| 2026-04-25 16:08 | 47.32309 | -60.32474 | 34797 ft | 477 kts | 63° |
| 2026-04-25 16:08 | 47.35061 | -60.23579 | 34797 ft | 477 kts | 63° |
| 2026-04-25 16:09 | 47.37801 | -60.14698 | 34794 ft | 477 kts | 63° |
| 2026-04-25 16:09 | 47.40525 | -60.05834 | 34784 ft | 476 kts | 62° |
| 2026-04-25 16:10 | 47.43241 | -59.96966 | 34765 ft | 476 kts | 62° |
| 2026-04-25 16:10 | 47.45964 | -59.88045 | 34742 ft | 476 kts | 62° |
| 2026-04-25 16:11 | 47.48615 | -59.79329 | 34724 ft | 476 kts | 62° |
| 2026-04-25 16:11 | 47.51314 | -59.70424 | 34711 ft | 476 kts | 62° |
| 2026-04-25 16:12 | 47.54013 | -59.61484 | 34699 ft | 476 kts | 62° |
| 2026-04-25 16:12 | 47.56691 | -59.52581 | 34692 ft | 476 kts | 62° |
| 2026-04-25 16:13 | 47.59365 | -59.43660 | 34688 ft | 476 kts | 62° |
| 2026-04-25 16:13 | 47.62023 | -59.34764 | 34686 ft | 476 kts | 63° |
| 2026-04-25 16:14 | 47.64664 | -59.25892 | 34685 ft | 477 kts | 63° |
| 2026-04-25 16:14 | 47.67268 | -59.17108 | 34685 ft | 477 kts | 63° |
| 2026-04-25 16:15 | 47.69899 | -59.08202 | 34685 ft | 477 kts | 63° |
| 2026-04-25 16:15 | 47.72526 | -58.99281 | 34685 ft | 476 kts | 63° |
| 2026-04-25 16:16 | 47.75158 | -58.90311 | 34683 ft | 476 kts | 63° |
| 2026-04-25 16:16 | 47.77765 | -58.81389 | 34679 ft | 476 kts | 63° |
| 2026-04-25 16:17 | 47.80369 | -58.72444 | 34674 ft | 476 kts | 63° |
| 2026-04-25 16:17 | 47.82816 | -58.64012 | 34670 ft | 476 kts | 63° |
| 2026-04-25 16:18 | 47.85483 | -58.54787 | 34665 ft | 476 kts | 63° |
| 2026-04-25 16:18 | 47.88073 | -58.45790 | 34662 ft | 475 kts | 63° |
| 2026-04-25 16:19 | 47.90660 | -58.36773 | 34662 ft | 475 kts | 63° |
| 2026-04-25 16:19 | 47.93179 | -58.27966 | 34665 ft | 475 kts | 64° |
| 2026-04-25 16:20 | 47.96965 | -58.14665 | 34671 ft | 475 kts | 64° |
| 2026-04-25 16:21 | 48.00806 | -58.01091 | 34676 ft | 475 kts | 64° |
| 2026-04-25 16:21 | 48.03331 | -57.92128 | 34676 ft | 475 kts | 64° |
| 2026-04-25 16:22 | 48.05872 | -57.83071 | 34671 ft | 475 kts | 64° |
| 2026-04-25 16:22 | 48.08414 | -57.73978 | 34665 ft | 475 kts | 64° |
| 2026-04-25 16:23 | 48.10925 | -57.64965 | 34663 ft | 476 kts | 64° |
| 2026-04-25 16:23 | 48.13442 | -57.55896 | 34660 ft | 475 kts | 64° |
| 2026-04-25 16:24 | 48.15951 | -57.46816 | 34659 ft | 475 kts | 64° |
| 2026-04-25 16:24 | 48.18468 | -57.37675 | 34659 ft | 475 kts | 64° |
| 2026-04-25 16:25 | 48.20918 | -57.28742 | 34658 ft | 476 kts | 65° |
| 2026-04-25 16:25 | 48.23397 | -57.19671 | 34658 ft | 476 kts | 65° |
| 2026-04-25 16:26 | 48.25890 | -57.10511 | 34658 ft | 476 kts | 65° |
| 2026-04-25 16:26 | 48.28368 | -57.01369 | 34654 ft | 476 kts | 65° |
| 2026-04-25 16:27 | 48.30844 | -56.92201 | 34642 ft | 476 kts | 65° |
| 2026-04-25 16:27 | 48.33306 | -56.83048 | 34624 ft | 476 kts | 65° |
| 2026-04-25 16:28 | 48.35719 | -56.74047 | 34610 ft | 477 kts | 65° |
| 2026-04-25 16:28 | 48.38175 | -56.64844 | 34601 ft | 477 kts | 65° |
| 2026-04-25 16:29 | 48.40625 | -56.55623 | 34596 ft | 477 kts | 65° |
| 2026-04-25 16:29 | 48.43076 | -56.46369 | 34594 ft | 477 kts | 65° |
| 2026-04-25 16:30 | 48.45509 | -56.37147 | 34593 ft | 477 kts | 65° |
| 2026-04-25 16:30 | 48.47915 | -56.27985 | 34592 ft | 477 kts | 66° |
| 2026-04-25 16:31 | 48.50328 | -56.18764 | 34592 ft | 477 kts | 66° |
| 2026-04-25 16:31 | 48.52750 | -56.09469 | 34591 ft | 477 kts | 66° |
| 2026-04-25 16:32 | 48.55157 | -56.00193 | 34581 ft | 477 kts | 66° |
| 2026-04-25 16:32 | 48.57556 | -55.90921 | 34563 ft | 477 kts | 66° |
| 2026-04-25 16:33 | 48.59959 | -55.81584 | 34543 ft | 477 kts | 66° |
| 2026-04-25 16:33 | 48.62347 | -55.72268 | 34530 ft | 477 kts | 66° |
| 2026-04-25 16:34 | 48.64723 | -55.62963 | 34523 ft | 477 kts | 66° |
| 2026-04-25 16:34 | 48.67096 | -55.53634 | 34519 ft | 477 kts | 66° |
| 2026-04-25 16:35 | 48.69465 | -55.44279 | 34518 ft | 476 kts | 66° |
| 2026-04-25 16:35 | 48.71805 | -55.35002 | 34517 ft | 476 kts | 66° |
| 2026-04-25 16:36 | 48.74123 | -55.25773 | 34517 ft | 476 kts | 67° |
| 2026-04-25 16:36 | 48.76424 | -55.16574 | 34517 ft | 476 kts | 67° |
| 2026-04-25 16:37 | 48.78723 | -55.07344 | 34516 ft | 476 kts | 67° |
| 2026-04-25 16:37 | 48.81036 | -54.98025 | 34511 ft | 476 kts | 67° |
| 2026-04-25 16:38 | 48.83342 | -54.88690 | 34506 ft | 475 kts | 68° |
| 2026-04-25 16:38 | 48.85638 | -54.79356 | 34502 ft | 475 kts | 68° |
| 2026-04-25 16:39 | 48.87924 | -54.70027 | 34500 ft | 475 kts | 68° |
| 2026-04-25 16:39 | 48.90211 | -54.60653 | 34499 ft | 475 kts | 68° |
| 2026-04-25 16:40 | 48.92502 | -54.51220 | 34499 ft | 475 kts | 68° |
| 2026-04-25 16:40 | 48.94774 | -54.41826 | 34500 ft | 475 kts | 68° |
| 2026-04-25 16:41 | 48.97023 | -54.32493 | 34499 ft | 475 kts | 68° |
| 2026-04-25 16:41 | 49.00409 | -54.18362 | 34499 ft | 474 kts | 68° |
| 2026-04-25 16:42 | 49.02642 | -54.08990 | 34490 ft | 474 kts | 68° |
| 2026-04-25 16:42 | 49.04875 | -53.99579 | 34474 ft | 474 kts | 68° |
| 2026-04-25 16:43 | 49.07071 | -53.90290 | 34456 ft | 473 kts | 69° |
| 2026-04-25 16:43 | 49.09274 | -53.80922 | 34444 ft | 473 kts | 69° |
| 2026-04-25 16:44 | 49.11479 | -53.71507 | 34438 ft | 473 kts | 69° |
| 2026-04-25 16:44 | 49.13677 | -53.62081 | 34436 ft | 473 kts | 69° |
| 2026-04-25 16:45 | 49.15873 | -53.52625 | 34437 ft | 473 kts | 69° |
| 2026-04-25 16:45 | 49.18062 | -53.43153 | 34443 ft | 473 kts | 69° |
| 2026-04-25 16:46 | 49.20254 | -53.33626 | 34451 ft | 473 kts | 69° |
| 2026-04-25 16:46 | 49.22066 | -53.25721 | 34457 ft | 473 kts | 69° |
| 2026-04-25 16:47 | 49.24598 | -53.14626 | 34467 ft | 472 kts | 69° |
| 2026-04-25 16:47 | 49.26767 | -53.05069 | 34475 ft | 472 kts | 69° |
| 2026-04-25 16:48 | 49.28952 | -52.95402 | 34483 ft | 472 kts | 69° |
| 2026-04-25 16:48 | 49.31128 | -52.85733 | 34485 ft | 472 kts | 69° |
| 2026-04-25 16:49 | 49.33276 | -52.76144 | 34481 ft | 472 kts | 69° |
| 2026-04-25 16:49 | 49.35412 | -52.66565 | 34476 ft | 471 kts | 69° |
| 2026-04-25 16:50 | 49.37550 | -52.56933 | 34473 ft | 471 kts | 69° |
| 2026-04-25 16:50 | 49.39684 | -52.47274 | 34471 ft | 471 kts | 69° |
| 2026-04-25 16:51 | 49.41817 | -52.37572 | 34471 ft | 471 kts | 69° |
| 2026-04-25 16:51 | 49.43579 | -52.29524 | 34471 ft | 471 kts | 70° |
| 2026-04-25 16:52 | 49.46000 | -52.18418 | 34470 ft | 470 kts | 70° |
| 2026-04-25 16:52 | 49.48078 | -52.08832 | 34470 ft | 470 kts | 70° |
| 2026-04-25 16:53 | 49.51390 | -51.94563 | 34471 ft | 469 kts | 67° |
| 2026-04-25 16:54 | 49.53818 | -51.85225 | 34470 ft | 469 kts | 67° |
| 2026-04-25 16:54 | 49.56232 | -51.75929 | 34470 ft | 469 kts | 67° |
| 2026-04-25 16:55 | 49.58231 | -51.68196 | 34470 ft | 469 kts | 67° |
| 2026-04-25 16:55 | 49.61037 | -51.57285 | 34470 ft | 469 kts | 67° |
| 2026-04-25 16:56 | 49.63434 | -51.47920 | 34470 ft | 469 kts | 67° |
| 2026-04-25 16:56 | 49.65820 | -51.38556 | 34470 ft | 469 kts | 67° |
| 2026-04-25 16:57 | 49.68116 | -51.29509 | 34471 ft | 469 kts | 68° |
| 2026-04-25 16:57 | 49.70487 | -51.20128 | 34471 ft | 468 kts | 68° |
| 2026-04-25 16:58 | 49.72838 | -51.10791 | 34471 ft | 467 kts | 68° |
| 2026-04-25 16:58 | 49.75186 | -51.01423 | 34470 ft | 467 kts | 68° |
| 2026-04-25 16:59 | 49.77533 | -50.92023 | 34471 ft | 467 kts | 68° |
| 2026-04-25 16:59 | 49.79881 | -50.82576 | 34472 ft | 467 kts | 68° |
| 2026-04-25 17:00 | 49.82199 | -50.73209 | 34476 ft | 466 kts | 68° |
| 2026-04-25 17:00 | 49.84502 | -50.63867 | 34482 ft | 465 kts | 68° |
| 2026-04-25 17:01 | 49.86804 | -50.54490 | 34488 ft | 465 kts | 68° |
| 2026-04-25 17:01 | 49.89089 | -50.45138 | 34495 ft | 464 kts | 68° |
| 2026-04-25 17:02 | 49.91383 | -50.35713 | 34501 ft | 464 kts | 68° |
| 2026-04-25 17:02 | 49.93649 | -50.26359 | 34509 ft | 463 kts | 69° |
| 2026-04-25 17:03 | 49.95913 | -50.16982 | 34512 ft | 463 kts | 69° |
| 2026-04-25 17:03 | 49.98159 | -50.07628 | 34515 ft | 463 kts | 69° |
| 2026-04-25 17:04 | 50.00171 | -49.98146 | 34517 ft | 463 kts | 74° |
| 2026-04-25 17:04 | 50.01656 | -49.88514 | 34520 ft | 464 kts | 76° |
| 2026-04-25 17:05 | 50.03060 | -49.78751 | 34522 ft | 464 kts | 76° |
| 2026-04-25 17:05 | 50.05150 | -49.64109 | 34523 ft | 463 kts | 76° |
| 2026-04-25 17:06 | 50.06540 | -49.54305 | 34523 ft | 463 kts | 76° |
| 2026-04-25 17:06 | 50.07917 | -49.44537 | 34523 ft | 463 kts | 76° |
| 2026-04-25 17:07 | 50.09285 | -49.34770 | 34523 ft | 463 kts | 77° |
| 2026-04-25 17:07 | 50.10640 | -49.25032 | 34525 ft | 463 kts | 77° |
| 2026-04-25 17:08 | 50.11996 | -49.15219 | 34524 ft | 463 kts | 77° |
| 2026-04-25 17:08 | 50.13340 | -49.05432 | 34529 ft | 463 kts | 77° |
| 2026-04-25 17:09 | 50.14657 | -48.95774 | 34539 ft | 463 kts | 78° |
| 2026-04-25 17:09 | 50.15989 | -48.85942 | 34551 ft | 463 kts | 78° |
| 2026-04-25 17:10 | 50.17307 | -48.76150 | 34557 ft | 462 kts | 78° |
| 2026-04-25 17:10 | 50.18616 | -48.66351 | 34560 ft | 462 kts | 78° |
| 2026-04-25 17:11 | 50.19918 | -48.56546 | 34562 ft | 462 kts | 78° |
| 2026-04-25 17:11 | 50.21212 | -48.46725 | 34562 ft | 462 kts | 78° |
| 2026-04-25 17:12 | 50.22495 | -48.36924 | 34562 ft | 461 kts | 78° |
| 2026-04-25 17:12 | 50.23768 | -48.27121 | 34562 ft | 461 kts | 79° |
| 2026-04-25 17:13 | 50.24826 | -48.18930 | 34562 ft | 461 kts | 79° |
| 2026-04-25 17:13 | 50.26293 | -48.07493 | 34567 ft | 462 kts | 79° |
| 2026-04-25 17:14 | 50.27534 | -47.97738 | 34574 ft | 462 kts | 79° |
| 2026-04-25 17:14 | 50.28783 | -47.87853 | 34581 ft | 462 kts | 79° |
| 2026-04-25 17:15 | 50.30023 | -47.77969 | 34586 ft | 462 kts | 79° |
| 2026-04-25 17:15 | 50.31249 | -47.68124 | 34590 ft | 463 kts | 79° |
| 2026-04-25 17:16 | 50.32470 | -47.58250 | 34592 ft | 463 kts | 79° |
| 2026-04-25 17:16 | 50.33695 | -47.48267 | 34595 ft | 463 kts | 79° |
| 2026-04-25 17:17 | 50.34903 | -47.38350 | 34597 ft | 463 kts | 79° |
| 2026-04-25 17:17 | 50.36098 | -47.28455 | 34600 ft | 464 kts | 80° |
| 2026-04-25 17:18 | 50.37286 | -47.18556 | 34601 ft | 464 kts | 80° |
| 2026-04-25 17:18 | 50.38470 | -47.08614 | 34603 ft | 464 kts | 80° |
| 2026-04-25 17:19 | 50.39641 | -46.98699 | 34605 ft | 464 kts | 80° |
| 2026-04-25 17:19 | 50.40805 | -46.88770 | 34610 ft | 465 kts | 80° |
| 2026-04-25 17:20 | 50.41967 | -46.78784 | 34616 ft | 465 kts | 80° |
| 2026-04-25 17:20 | 50.43099 | -46.68975 | 34622 ft | 465 kts | 80° |
| 2026-04-25 17:21 | 50.44240 | -46.59006 | 34626 ft | 465 kts | 80° |
| 2026-04-25 17:21 | 50.45361 | -46.49142 | 34627 ft | 466 kts | 80° |
| 2026-04-25 17:22 | 50.46306 | -46.40767 | 34628 ft | 466 kts | 80° |
| 2026-04-25 17:22 | 50.47611 | -46.29090 | 34628 ft | 466 kts | 81° |
| 2026-04-25 17:23 | 50.48719 | -46.19102 | 34628 ft | 466 kts | 81° |
| 2026-04-25 17:23 | 50.49822 | -46.09075 | 34628 ft | 466 kts | 81° |
| 2026-04-25 17:24 | 50.50913 | -45.99071 | 34628 ft | 466 kts | 81° |
| 2026-04-25 17:24 | 50.52001 | -45.89034 | 34630 ft | 467 kts | 81° |
| 2026-04-25 17:25 | 50.53078 | -45.78988 | 34633 ft | 467 kts | 81° |
| 2026-04-25 17:25 | 50.54149 | -45.68912 | 34635 ft | 467 kts | 81° |
| 2026-04-25 17:26 | 50.55209 | -45.58853 | 34636 ft | 467 kts | 81° |
| 2026-04-25 17:26 | 50.56261 | -45.48793 | 34636 ft | 468 kts | 81° |
| 2026-04-25 17:27 | 50.57311 | -45.38657 | 34636 ft | 469 kts | 82° |
| 2026-04-25 17:27 | 50.58176 | -45.30246 | 34637 ft | 469 kts | 82° |
| 2026-04-25 17:28 | 50.59378 | -45.18442 | 34637 ft | 470 kts | 82° |
| 2026-04-25 17:28 | 50.60403 | -45.08291 | 34636 ft | 470 kts | 83° |
| 2026-04-25 17:29 | 50.61422 | -44.98093 | 34636 ft | 471 kts | 83° |
| 2026-04-25 17:29 | 50.62432 | -44.87905 | 34636 ft | 471 kts | 83° |
| 2026-04-25 17:30 | 50.63431 | -44.77721 | 34636 ft | 472 kts | 83° |
| 2026-04-25 17:30 | 50.64426 | -44.67485 | 34636 ft | 473 kts | 83° |
| 2026-04-25 17:31 | 50.65411 | -44.57250 | 34636 ft | 474 kts | 83° |
| 2026-04-25 17:31 | 50.66388 | -44.47008 | 34636 ft | 474 kts | 84° |
| 2026-04-25 17:32 | 50.67358 | -44.36746 | 34636 ft | 474 kts | 84° |
| 2026-04-25 17:32 | 50.68322 | -44.26432 | 34634 ft | 475 kts | 84° |
| 2026-04-25 17:33 | 50.69267 | -44.16226 | 34632 ft | 475 kts | 84° |
| 2026-04-25 17:33 | 50.70210 | -44.05940 | 34632 ft | 475 kts | 84° |
| 2026-04-25 17:34 | 50.71151 | -43.95611 | 34638 ft | 476 kts | 85° |
| 2026-04-25 17:34 | 50.72068 | -43.85423 | 34649 ft | 477 kts | 85° |
| 2026-04-25 17:35 | 50.72998 | -43.74934 | 34658 ft | 477 kts | 85° |
| 2026-04-25 17:35 | 50.73907 | -43.64589 | 34662 ft | 477 kts | 85° |
| 2026-04-25 17:36 | 50.74812 | -43.54215 | 34664 ft | 477 kts | 85° |
| 2026-04-25 17:36 | 50.75706 | -43.43838 | 34665 ft | 477 kts | 85° |
| 2026-04-25 17:37 | 50.76590 | -43.33478 | 34665 ft | 477 kts | 86° |
| 2026-04-25 17:37 | 50.77467 | -43.23084 | 34665 ft | 477 kts | 86° |
| 2026-04-25 17:38 | 50.78189 | -43.14445 | 34666 ft | 477 kts | 86° |
| 2026-04-25 17:38 | 50.79189 | -43.02340 | 34671 ft | 477 kts | 86° |
| 2026-04-25 17:39 | 50.80036 | -42.91949 | 34679 ft | 478 kts | 86° |
| 2026-04-25 17:39 | 50.80879 | -42.81507 | 34687 ft | 478 kts | 87° |
| 2026-04-25 17:40 | 50.81710 | -42.71101 | 34691 ft | 478 kts | 87° |
| 2026-04-25 17:40 | 50.82530 | -42.60694 | 34693 ft | 478 kts | 87° |
| 2026-04-25 17:41 | 50.83349 | -42.50192 | 34693 ft | 478 kts | 87° |
| 2026-04-25 17:41 | 50.84165 | -42.39572 | 34693 ft | 478 kts | 87° |
| 2026-04-25 17:42 | 50.84963 | -42.29087 | 34694 ft | 478 kts | 88° |
| 2026-04-25 17:42 | 50.85752 | -42.18584 | 34694 ft | 478 kts | 88° |
| 2026-04-25 17:43 | 50.86537 | -42.08022 | 34699 ft | 478 kts | 88° |
| 2026-04-25 17:43 | 50.87316 | -41.97396 | 34707 ft | 478 kts | 88° |
| 2026-04-25 17:44 | 50.88080 | -41.86847 | 34719 ft | 481 kts | 89° |
| 2026-04-25 17:44 | 50.88843 | -41.76138 | 34726 ft | 481 kts | 89° |
| 2026-04-25 17:45 | 50.89469 | -41.67267 | 34728 ft | 482 kts | 89° |
| 2026-04-25 17:45 | 50.90309 | -41.55209 | 34730 ft | 482 kts | 89° |
| 2026-04-25 17:46 | 50.91043 | -41.44516 | 34730 ft | 482 kts | 89° |
| 2026-04-25 17:46 | 50.91767 | -41.33828 | 34732 ft | 483 kts | 89° |
| 2026-04-25 17:47 | 50.92471 | -41.23287 | 34733 ft | 483 kts | 89° |
| 2026-04-25 17:47 | 50.93167 | -41.12732 | 34733 ft | 483 kts | 89° |
| 2026-04-25 17:48 | 50.94197 | -40.96807 | 34733 ft | 484 kts | 89° |
| 2026-04-25 17:49 | 50.94872 | -40.86199 | 34738 ft | 485 kts | 89° |
| 2026-04-25 17:49 | 50.95538 | -40.75559 | 34747 ft | 486 kts | 89° |
| 2026-04-25 17:50 | 50.96198 | -40.64873 | 34754 ft | 487 kts | 89° |
| 2026-04-25 17:50 | 50.96846 | -40.54213 | 34759 ft | 487 kts | 89° |
| 2026-04-25 17:51 | 50.97482 | -40.43594 | 34761 ft | 488 kts | 89° |
| 2026-04-25 17:51 | 50.98079 | -40.33477 | 34762 ft | 488 kts | 90° |
| 2026-04-25 17:52 | 50.98722 | -40.22407 | 34765 ft | 488 kts | 90° |
| 2026-04-25 17:52 | 50.99331 | -40.11757 | 34765 ft | 488 kts | 90° |
| 2026-04-25 17:53 | 50.99931 | -40.01063 | 34765 ft | 488 kts | 90° |
| 2026-04-25 17:53 | 51.00432 | -39.90241 | 34767 ft | 490 kts | 91° |
| 2026-04-25 17:54 | 51.00866 | -39.79375 | 34773 ft | 491 kts | 91° |
| 2026-04-25 17:54 | 51.01295 | -39.68581 | 34778 ft | 492 kts | 91° |
| 2026-04-25 17:55 | 51.01722 | -39.57698 | 34781 ft | 492 kts | 91° |
| 2026-04-25 17:55 | 51.02146 | -39.46749 | 34783 ft | 492 kts | 91° |
| 2026-04-25 17:56 | 51.02555 | -39.35894 | 34784 ft | 492 kts | 91° |
| 2026-04-25 17:56 | 51.02952 | -39.25107 | 34786 ft | 491 kts | 92° |
| 2026-04-25 17:57 | 51.03341 | -39.14262 | 34786 ft | 492 kts | 92° |
| 2026-04-25 17:57 | 51.03716 | -39.03529 | 34786 ft | 492 kts | 92° |
| 2026-04-25 17:58 | 51.04085 | -38.92679 | 34786 ft | 493 kts | 92° |
| 2026-04-25 17:58 | 51.04444 | -38.81818 | 34789 ft | 494 kts | 92° |
| 2026-04-25 17:59 | 51.04796 | -38.70912 | 34791 ft | 494 kts | 92° |
| 2026-04-25 17:59 | 51.05127 | -38.60303 | 34793 ft | 494 kts | 92° |
| 2026-04-25 18:00 | 51.05457 | -38.49410 | 34794 ft | 495 kts | 92° |
| 2026-04-25 18:00 | 51.05778 | -38.38485 | 34794 ft | 495 kts | 92° |
| 2026-04-25 18:01 | 51.06084 | -38.27719 | 34795 ft | 495 kts | 93° |
| 2026-04-25 18:01 | 51.06385 | -38.16827 | 34795 ft | 495 kts | 93° |
| 2026-04-25 18:02 | 51.06674 | -38.05943 | 34796 ft | 495 kts | 93° |
| 2026-04-25 18:02 | 51.06956 | -37.94943 | 34799 ft | 497 kts | 93° |
| 2026-04-25 18:03 | 51.07228 | -37.83916 | 34805 ft | 498 kts | 93° |
| 2026-04-25 18:03 | 51.07492 | -37.72798 | 34810 ft | 499 kts | 93° |
| 2026-04-25 18:04 | 51.07746 | -37.61702 | 34812 ft | 499 kts | 93° |
| 2026-04-25 18:04 | 51.07987 | -37.50715 | 34813 ft | 499 kts | 93° |
| 2026-04-25 18:05 | 51.08217 | -37.39682 | 34813 ft | 500 kts | 93° |
| 2026-04-25 18:05 | 51.08437 | -37.28690 | 34815 ft | 500 kts | 94° |
| 2026-04-25 18:06 | 51.08648 | -37.17649 | 34815 ft | 500 kts | 94° |
| 2026-04-25 18:06 | 51.08848 | -37.06625 | 34818 ft | 501 kts | 94° |
| 2026-04-25 18:07 | 51.09038 | -36.95563 | 34828 ft | 501 kts | 94° |
| 2026-04-25 18:07 | 51.09216 | -36.84468 | 34841 ft | 501 kts | 94° |
| 2026-04-25 18:08 | 51.09385 | -36.73412 | 34848 ft | 502 kts | 94° |
| 2026-04-25 18:08 | 51.09544 | -36.62347 | 34852 ft | 502 kts | 94° |
| 2026-04-25 18:09 | 51.09676 | -36.52499 | 34853 ft | 503 kts | 94° |
| 2026-04-25 18:09 | 51.09827 | -36.40515 | 34854 ft | 502 kts | 94° |
| 2026-04-25 18:10 | 51.09955 | -36.29454 | 34855 ft | 502 kts | 95° |
| 2026-04-25 18:10 | 51.10071 | -36.18378 | 34852 ft | 502 kts | 95° |
| 2026-04-25 18:11 | 51.10178 | -36.07236 | 34855 ft | 503 kts | 95° |
| 2026-04-25 18:11 | 51.10273 | -35.96185 | 34853 ft | 504 kts | 94° |
| 2026-04-25 18:12 | 51.10357 | -35.84996 | 34855 ft | 506 kts | 94° |
| 2026-04-25 18:12 | 51.10435 | -35.73827 | 34856 ft | 506 kts | 94° |
| 2026-04-25 18:13 | 51.10501 | -35.62590 | 34856 ft | 507 kts | 94° |
| 2026-04-25 18:13 | 51.10555 | -35.51579 | 34856 ft | 507 kts | 94° |
| 2026-04-25 18:14 | 51.10618 | -35.34767 | 34856 ft | 508 kts | 95° |
| 2026-04-25 18:14 | 51.10646 | -35.23525 | 34855 ft | 508 kts | 95° |
| 2026-04-25 18:15 | 51.10662 | -35.12291 | 34855 ft | 509 kts | 95° |
| 2026-04-25 18:15 | 51.10667 | -35.01066 | 34855 ft | 509 kts | 95° |
| 2026-04-25 18:16 | 51.10663 | -34.89759 | 34858 ft | 510 kts | 95° |
| 2026-04-25 18:17 | 51.10636 | -34.72809 | 34871 ft | 511 kts | 95° |
| 2026-04-25 18:17 | 51.10605 | -34.61401 | 34878 ft | 512 kts | 95° |
| 2026-04-25 18:18 | 51.10560 | -34.49875 | 34882 ft | 513 kts | 94° |
| 2026-04-25 18:18 | 51.10507 | -34.38445 | 34884 ft | 513 kts | 94° |
| 2026-04-25 18:19 | 51.10443 | -34.27075 | 34883 ft | 513 kts | 95° |
| 2026-04-25 18:19 | 51.10367 | -34.15794 | 34883 ft | 514 kts | 95° |
| 2026-04-25 18:20 | 51.10279 | -34.04381 | 34884 ft | 514 kts | 95° |
| 2026-04-25 18:20 | 51.10177 | -33.93018 | 34883 ft | 516 kts | 95° |
| 2026-04-25 18:21 | 51.10068 | -33.81635 | 34884 ft | 517 kts | 95° |
| 2026-04-25 18:21 | 51.09950 | -33.70193 | 34884 ft | 516 kts | 95° |
| 2026-04-25 18:22 | 51.09819 | -33.58796 | 34884 ft | 516 kts | 95° |
| 2026-04-25 18:22 | 51.09686 | -33.47405 | 34884 ft | 516 kts | 95° |
| 2026-04-25 18:23 | 51.09527 | -33.35997 | 34885 ft | 517 kts | 95° |
| 2026-04-25 18:23 | 51.09358 | -33.24549 | 34883 ft | 517 kts | 96° |
| 2026-04-25 18:24 | 51.09180 | -33.13148 | 34883 ft | 517 kts | 96° |
| 2026-04-25 18:24 | 51.08992 | -33.01717 | 34885 ft | 517 kts | 96° |
| 2026-04-25 18:25 | 51.08792 | -32.90250 | 34891 ft | 517 kts | 96° |
| 2026-04-25 18:25 | 51.08582 | -32.78832 | 34900 ft | 518 kts | 96° |
| 2026-04-25 18:26 | 51.08362 | -32.67475 | 34906 ft | 519 kts | 96° |
| 2026-04-25 18:26 | 51.08131 | -32.56065 | 34909 ft | 519 kts | 96° |
| 2026-04-25 18:27 | 51.07886 | -32.44555 | 34911 ft | 519 kts | 96° |
| 2026-04-25 18:27 | 51.07630 | -32.33106 | 34910 ft | 519 kts | 96° |
| 2026-04-25 18:28 | 51.07364 | -32.21653 | 34910 ft | 519 kts | 96° |
| 2026-04-25 18:28 | 51.07086 | -32.10182 | 34910 ft | 519 kts | 96° |
| 2026-04-25 18:29 | 51.06644 | -31.92996 | 34919 ft | 521 kts | 96° |
| 2026-04-25 18:30 | 51.06023 | -31.70050 | 34935 ft | 521 kts | 96° |
| 2026-04-25 18:30 | 51.05694 | -31.58534 | 34938 ft | 521 kts | 96° |
| 2026-04-25 18:31 | 51.05354 | -31.47047 | 34939 ft | 521 kts | 96° |
| 2026-04-25 18:31 | 51.05001 | -31.35570 | 34940 ft | 521 kts | 96° |
| 2026-04-25 18:32 | 51.04639 | -31.24086 | 34938 ft | 521 kts | 96° |
| 2026-04-25 18:32 | 51.04263 | -31.12591 | 34941 ft | 521 kts | 96° |
| 2026-04-25 18:33 | 51.03878 | -31.01134 | 34968 ft | 521 kts | 96° |
| 2026-04-25 18:33 | 51.03479 | -30.89612 | 35019 ft | 520 kts | 96° |
| 2026-04-25 18:34 | 51.03072 | -30.78140 | 35062 ft | 520 kts | 96° |
| 2026-04-25 18:34 | 51.02654 | -30.66701 | 35085 ft | 520 kts | 96° |
| 2026-04-25 18:35 | 51.02226 | -30.55268 | 35096 ft | 520 kts | 96° |
| 2026-04-25 18:35 | 51.01784 | -30.43794 | 35101 ft | 520 kts | 96° |
| 2026-04-25 18:36 | 51.01333 | -30.32359 | 35101 ft | 519 kts | 96° |
| 2026-04-25 18:36 | 51.00872 | -30.20942 | 35102 ft | 520 kts | 96° |
| 2026-04-25 18:37 | 51.00395 | -30.09466 | 35102 ft | 520 kts | 96° |
| 2026-04-25 18:37 | 51.00135 | -29.98132 | 35102 ft | 522 kts | 91° |
| 2026-04-25 18:38 | 51.00504 | -29.86516 | 35103 ft | 523 kts | 88° |
| 2026-04-25 18:38 | 51.01001 | -29.75001 | 35103 ft | 523 kts | 87° |
| 2026-04-25 18:39 | 51.01480 | -29.63456 | 35103 ft | 523 kts | 88° |
| 2026-04-25 18:39 | 51.01937 | -29.51955 | 35103 ft | 523 kts | 88° |
| 2026-04-25 18:40 | 51.02378 | -29.40434 | 35104 ft | 523 kts | 88° |
| 2026-04-25 18:40 | 51.02807 | -29.28902 | 35102 ft | 523 kts | 88° |
| 2026-04-25 18:41 | 51.03224 | -29.17364 | 35102 ft | 523 kts | 88° |
| 2026-04-25 18:41 | 51.03629 | -29.05828 | 35102 ft | 524 kts | 88° |
| 2026-04-25 18:42 | 51.03960 | -28.96196 | 35102 ft | 524 kts | 88° |
| 2026-04-25 18:42 | 51.04408 | -28.82725 | 35103 ft | 524 kts | 88° |
| 2026-04-25 18:43 | 51.04781 | -28.71186 | 35103 ft | 524 kts | 88° |
| 2026-04-25 18:43 | 51.05141 | -28.59644 | 35103 ft | 524 kts | 88° |
| 2026-04-25 18:44 | 51.05493 | -28.48050 | 35104 ft | 524 kts | 88° |
| 2026-04-25 18:44 | 51.05830 | -28.36493 | 35104 ft | 524 kts | 88° |
| 2026-04-25 18:45 | 51.06157 | -28.24945 | 35102 ft | 524 kts | 89° |
| 2026-04-25 18:45 | 51.06471 | -28.13387 | 35102 ft | 524 kts | 89° |
| 2026-04-25 18:46 | 51.06776 | -28.01793 | 35103 ft | 524 kts | 89° |
| 2026-04-25 18:46 | 51.07065 | -27.90252 | 35103 ft | 524 kts | 88° |
| 2026-04-25 18:47 | 51.07346 | -27.78720 | 35103 ft | 524 kts | 88° |
| 2026-04-25 18:47 | 51.07619 | -27.67121 | 35103 ft | 524 kts | 88° |
| 2026-04-25 18:48 | 51.07877 | -27.55564 | 35103 ft | 524 kts | 88° |
| 2026-04-25 18:48 | 51.08123 | -27.44016 | 35104 ft | 524 kts | 88° |
| 2026-04-25 18:49 | 51.08317 | -27.34559 | 35103 ft | 524 kts | 89° |
| 2026-04-25 18:49 | 51.08541 | -27.23073 | 35102 ft | 524 kts | 89° |
| 2026-04-25 18:50 | 51.08773 | -27.10478 | 35102 ft | 525 kts | 89° |
| 2026-04-25 18:50 | 51.08974 | -26.98948 | 35103 ft | 525 kts | 89° |
| 2026-04-25 18:51 | 51.09135 | -26.89248 | 35103 ft | 524 kts | 89° |
| 2026-04-25 18:51 | 51.09346 | -26.75728 | 35103 ft | 524 kts | 89° |
| 2026-04-25 18:52 | 51.09515 | -26.64151 | 35103 ft | 524 kts | 89° |
| 2026-04-25 18:52 | 51.09672 | -26.52582 | 35103 ft | 524 kts | 89° |
| 2026-04-25 18:53 | 51.09817 | -26.40962 | 35103 ft | 525 kts | 89° |
| 2026-04-25 18:53 | 51.09950 | -26.29534 | 35101 ft | 525 kts | 89° |
| 2026-04-25 18:54 | 51.10130 | -26.11963 | 35102 ft | 525 kts | 89° |
| 2026-04-25 18:55 | 51.10236 | -26.00326 | 35103 ft | 525 kts | 89° |
| 2026-04-25 18:55 | 51.10328 | -25.88733 | 35103 ft | 525 kts | 89° |
| 2026-04-25 18:56 | 51.10411 | -25.77147 | 35103 ft | 524 kts | 89° |
| 2026-04-25 18:56 | 51.10482 | -25.65552 | 35103 ft | 523 kts | 89° |
| 2026-04-25 18:57 | 51.10542 | -25.53986 | 35103 ft | 523 kts | 89° |
| 2026-04-25 18:57 | 51.10589 | -25.42440 | 35104 ft | 523 kts | 89° |
| 2026-04-25 18:58 | 51.10626 | -25.30878 | 35102 ft | 523 kts | 90° |
| 2026-04-25 18:58 | 51.10659 | -25.13565 | 35102 ft | 522 kts | 90° |
| 2026-04-25 18:59 | 51.10663 | -24.90503 | 35103 ft | 522 kts | 90° |
| 2026-04-25 19:00 | 51.10636 | -24.73200 | 35103 ft | 521 kts | 90° |
| 2026-04-25 19:01 | 51.10584 | -24.55947 | 35104 ft | 521 kts | 90° |
| 2026-04-25 19:01 | 51.10535 | -24.44408 | 35103 ft | 521 kts | 90° |
| 2026-04-25 19:02 | 51.10442 | -24.27168 | 35102 ft | 520 kts | 90° |
| 2026-04-25 19:03 | 51.10337 | -24.11982 | 35102 ft | 520 kts | 90° |
| 2026-04-25 19:03 | 51.10228 | -23.98390 | 35103 ft | 520 kts | 91° |
| 2026-04-25 19:04 | 51.10068 | -23.81239 | 35103 ft | 518 kts | 91° |
| 2026-04-25 19:05 | 51.09814 | -23.58383 | 35103 ft | 516 kts | 91° |
| 2026-04-25 19:06 | 51.09671 | -23.46986 | 35104 ft | 516 kts | 91° |
| 2026-04-25 19:06 | 51.09438 | -23.30009 | 35102 ft | 515 kts | 92° |
| 2026-04-25 19:07 | 51.09176 | -23.12865 | 35102 ft | 514 kts | 92° |
| 2026-04-25 19:08 | 51.08893 | -22.95864 | 35103 ft | 514 kts | 92° |
| 2026-04-25 19:09 | 51.08513 | -22.75102 | 35117 ft | 512 kts | 92° |
| 2026-04-25 19:10 | 51.08137 | -22.56283 | 35127 ft | 512 kts | 92° |
| 2026-04-25 19:10 | 51.07896 | -22.44970 | 35129 ft | 511 kts | 92° |
| 2026-04-25 19:11 | 51.07645 | -22.33700 | 35130 ft | 510 kts | 93° |
| 2026-04-25 19:11 | 51.07384 | -22.22442 | 35129 ft | 510 kts | 93° |
| 2026-04-25 19:12 | 51.07112 | -22.11223 | 35129 ft | 509 kts | 93° |
| 2026-04-25 19:12 | 51.06829 | -21.99955 | 35130 ft | 509 kts | 93° |
| 2026-04-25 19:13 | 51.06541 | -21.88725 | 35141 ft | 507 kts | 94° |
| 2026-04-25 19:13 | 51.06236 | -21.77552 | 35160 ft | 507 kts | 94° |
| 2026-04-25 19:14 | 51.05921 | -21.66353 | 35174 ft | 507 kts | 94° |
| 2026-04-25 19:14 | 51.05598 | -21.55206 | 35180 ft | 506 kts | 94° |
| 2026-04-25 19:15 | 51.05268 | -21.44161 | 35183 ft | 507 kts | 94° |
| 2026-04-25 19:15 | 51.04921 | -21.32898 | 35183 ft | 507 kts | 95° |
| 2026-04-25 19:16 | 51.04563 | -21.21694 | 35183 ft | 506 kts | 95° |
| 2026-04-25 19:16 | 51.04198 | -21.10568 | 35183 ft | 506 kts | 95° |
| 2026-04-25 19:17 | 51.03822 | -20.99401 | 35183 ft | 505 kts | 95° |
| 2026-04-25 19:17 | 51.03434 | -20.88209 | 35184 ft | 505 kts | 95° |
| 2026-04-25 19:18 | 51.03037 | -20.77067 | 35184 ft | 505 kts | 95° |
| 2026-04-25 19:18 | 51.02630 | -20.65952 | 35184 ft | 505 kts | 95° |
| 2026-04-25 19:19 | 51.02213 | -20.54854 | 35184 ft | 505 kts | 95° |
| 2026-04-25 19:19 | 51.01783 | -20.43707 | 35184 ft | 505 kts | 95° |
| 2026-04-25 19:20 | 51.01346 | -20.32618 | 35182 ft | 505 kts | 96° |
| 2026-04-25 19:20 | 51.00898 | -20.21523 | 35181 ft | 505 kts | 96° |
| 2026-04-25 19:21 | 51.00436 | -20.10386 | 35180 ft | 505 kts | 96° |
| 2026-04-25 19:21 | 51.00108 | -19.93692 | 35181 ft | 506 kts | 91° |
| 2026-04-25 19:22 | 51.00329 | -19.82546 | 35182 ft | 506 kts | 90° |
| 2026-04-25 19:23 | 51.00665 | -19.65793 | 35184 ft | 506 kts | 90° |
| 2026-04-25 19:23 | 51.00962 | -19.49297 | 35184 ft | 506 kts | 91° |
| 2026-04-25 19:24 | 51.01150 | -19.37917 | 35184 ft | 507 kts | 91° |
| 2026-04-25 19:25 | 51.01489 | -19.15564 | 35183 ft | 506 kts | 91° |
| 2026-04-25 19:25 | 51.01640 | -19.04429 | 35183 ft | 506 kts | 91° |
| 2026-04-25 19:26 | 51.01783 | -18.93231 | 35183 ft | 507 kts | 92° |
| 2026-04-25 19:26 | 51.01914 | -18.82074 | 35183 ft | 507 kts | 92° |
| 2026-04-25 19:27 | 51.02015 | -18.72786 | 35184 ft | 506 kts | 92° |
| 2026-04-25 19:27 | 51.02145 | -18.59762 | 35184 ft | 506 kts | 92° |
| 2026-04-25 19:28 | 51.02245 | -18.48585 | 35184 ft | 506 kts | 92° |
| 2026-04-25 19:28 | 51.02334 | -18.37427 | 35184 ft | 506 kts | 92° |
| 2026-04-25 19:29 | 51.02411 | -18.26288 | 35183 ft | 506 kts | 92° |
| 2026-04-25 19:29 | 51.02478 | -18.15112 | 35183 ft | 506 kts | 92° |
| 2026-04-25 19:30 | 51.02534 | -18.03968 | 35183 ft | 506 kts | 92° |
| 2026-04-25 19:30 | 51.02584 | -17.92816 | 35183 ft | 506 kts | 93° |
| 2026-04-25 19:31 | 51.02618 | -17.81640 | 35183 ft | 507 kts | 93° |
| 2026-04-25 19:31 | 51.02642 | -17.70439 | 35184 ft | 507 kts | 93° |
| 2026-04-25 19:32 | 51.02656 | -17.59287 | 35184 ft | 507 kts | 93° |
| 2026-04-25 19:32 | 51.02660 | -17.49949 | 35184 ft | 507 kts | 93° |
| 2026-04-25 19:33 | 51.02654 | -17.37193 | 35184 ft | 506 kts | 93° |
| 2026-04-25 19:33 | 51.02636 | -17.26029 | 35183 ft | 506 kts | 94° |
| 2026-04-25 19:34 | 51.02608 | -17.14877 | 35183 ft | 506 kts | 94° |
| 2026-04-25 19:34 | 51.02569 | -17.03741 | 35183 ft | 506 kts | 94° |
| 2026-04-25 19:35 | 51.02520 | -16.92553 | 35183 ft | 506 kts | 94° |
| 2026-04-25 19:35 | 51.02460 | -16.81391 | 35184 ft | 506 kts | 94° |
| 2026-04-25 19:36 | 51.02390 | -16.70271 | 35184 ft | 506 kts | 94° |
| 2026-04-25 19:36 | 51.02309 | -16.59085 | 35184 ft | 505 kts | 94° |
| 2026-04-25 19:37 | 51.02218 | -16.47944 | 35184 ft | 506 kts | 94° |
| 2026-04-25 19:37 | 51.02115 | -16.36784 | 35184 ft | 506 kts | 94° |
| 2026-04-25 19:38 | 51.02002 | -16.25640 | 35183 ft | 506 kts | 95° |
| 2026-04-25 19:38 | 51.01878 | -16.14455 | 35183 ft | 506 kts | 95° |
| 2026-04-25 19:39 | 51.01744 | -16.03321 | 35183 ft | 505 kts | 95° |
| 2026-04-25 19:39 | 51.01600 | -15.92203 | 35183 ft | 506 kts | 95° |
| 2026-04-25 19:40 | 51.01444 | -15.81006 | 35183 ft | 506 kts | 95° |
| 2026-04-25 19:40 | 51.01278 | -15.69878 | 35184 ft | 507 kts | 95° |
| 2026-04-25 19:41 | 51.01101 | -15.58714 | 35184 ft | 507 kts | 95° |
| 2026-04-25 19:41 | 51.00946 | -15.49396 | 35184 ft | 507 kts | 95° |
| 2026-04-25 19:42 | 51.00717 | -15.36375 | 35184 ft | 507 kts | 95° |
| 2026-04-25 19:42 | 51.00509 | -15.25201 | 35183 ft | 507 kts | 96° |
| 2026-04-25 19:43 | 51.00289 | -15.14041 | 35183 ft | 507 kts | 96° |
| 2026-04-25 19:43 | 51.00057 | -15.02843 | 35183 ft | 508 kts | 96° |
| 2026-04-25 19:44 | 51.00012 | -14.91641 | 35183 ft | 509 kts | 93° |
| 2026-04-25 19:44 | 51.00053 | -14.80424 | 35183 ft | 510 kts | 93° |
| 2026-04-25 19:45 | 51.00084 | -14.69198 | 35184 ft | 510 kts | 93° |
| 2026-04-25 19:45 | 51.00099 | -14.57902 | 35184 ft | 510 kts | 93° |
| 2026-04-25 19:46 | 51.00103 | -14.46662 | 35184 ft | 511 kts | 93° |
| 2026-04-25 19:46 | 51.00095 | -14.35460 | 35184 ft | 511 kts | 93° |
| 2026-04-25 19:47 | 51.00076 | -14.24164 | 35183 ft | 510 kts | 94° |
| 2026-04-25 19:47 | 51.00046 | -14.12917 | 35183 ft | 510 kts | 94° |
| 2026-04-25 19:48 | 51.00003 | -14.01694 | 35183 ft | 510 kts | 95° |
| 2026-04-25 19:48 | 50.99709 | -13.90459 | 35183 ft | 510 kts | 96° |
| 2026-04-25 19:49 | 50.99398 | -13.81084 | 35183 ft | 511 kts | 96° |
| 2026-04-25 19:49 | 50.98953 | -13.67961 | 35184 ft | 511 kts | 96° |
| 2026-04-25 19:50 | 50.98369 | -13.51116 | 35184 ft | 511 kts | 96° |
| 2026-04-25 19:51 | 50.97965 | -13.39840 | 35184 ft | 511 kts | 96° |
| 2026-04-25 19:51 | 50.97552 | -13.28605 | 35183 ft | 511 kts | 97° |
| 2026-04-25 19:52 | 50.97128 | -13.17374 | 35183 ft | 511 kts | 97° |
| 2026-04-25 19:52 | 50.96692 | -13.06100 | 35183 ft | 512 kts | 97° |
| 2026-04-25 19:53 | 50.96247 | -12.94883 | 35183 ft | 512 kts | 97° |
| 2026-04-25 19:53 | 50.95791 | -12.83645 | 35183 ft | 512 kts | 97° |
| 2026-04-25 19:54 | 50.95323 | -12.72390 | 35184 ft | 512 kts | 97° |
| 2026-04-25 19:54 | 50.94844 | -12.61111 | 35184 ft | 513 kts | 97° |
| 2026-04-25 19:55 | 50.94353 | -12.49822 | 35184 ft | 513 kts | 97° |
| 2026-04-25 19:55 | 50.93852 | -12.38561 | 35185 ft | 514 kts | 97° |
| 2026-04-25 19:56 | 50.93341 | -12.27333 | 35183 ft | 514 kts | 98° |
| 2026-04-25 19:56 | 50.92818 | -12.16069 | 35183 ft | 514 kts | 98° |
| 2026-04-25 19:57 | 50.92284 | -12.04806 | 35183 ft | 514 kts | 98° |
| 2026-04-25 19:57 | 50.91745 | -11.93696 | 35183 ft | 515 kts | 98° |
| 2026-04-25 19:58 | 50.91182 | -11.82290 | 35183 ft | 515 kts | 98° |
| 2026-04-25 19:58 | 50.90617 | -11.71022 | 35184 ft | 515 kts | 98° |
| 2026-04-25 19:59 | 50.90040 | -11.59768 | 35184 ft | 515 kts | 98° |
| 2026-04-25 19:59 | 50.89447 | -11.48434 | 35184 ft | 516 kts | 98° |
| 2026-04-25 20:00 | 50.88844 | -11.37129 | 35183 ft | 516 kts | 97° |
| 2026-04-25 20:00 | 50.88235 | -11.25881 | 35183 ft | 516 kts | 98° |
| 2026-04-25 20:01 | 50.87292 | -11.08876 | 35184 ft | 517 kts | 98° |
| 2026-04-25 20:01 | 50.86651 | -10.97563 | 35183 ft | 517 kts | 98° |
| 2026-04-25 20:02 | 50.86000 | -10.86274 | 35183 ft | 517 kts | 98° |
| 2026-04-25 20:02 | 50.85336 | -10.74962 | 35183 ft | 518 kts | 98° |
| 2026-04-25 20:03 | 50.84658 | -10.63609 | 35183 ft | 518 kts | 98° |
| 2026-04-25 20:03 | 50.83973 | -10.52295 | 35183 ft | 518 kts | 98° |
| 2026-04-25 20:04 | 50.83274 | -10.40962 | 35183 ft | 519 kts | 98° |
| 2026-04-25 20:04 | 50.82566 | -10.29616 | 35182 ft | 519 kts | 99° |
| 2026-04-25 20:05 | 50.81845 | -10.18280 | 35183 ft | 519 kts | 99° |
| 2026-04-25 20:05 | 50.81114 | -10.06957 | 35184 ft | 519 kts | 99° |
| 2026-04-25 20:06 | 50.80351 | -9.95352 | 35183 ft | 520 kts | 99° |
| 2026-04-25 20:06 | 50.79578 | -9.83757 | 35183 ft | 521 kts | 99° |
| 2026-04-25 20:07 | 50.78803 | -9.72263 | 35183 ft | 521 kts | 99° |
| 2026-04-25 20:07 | 50.78021 | -9.60865 | 35183 ft | 521 kts | 99° |
| 2026-04-25 20:08 | 50.77222 | -9.49395 | 35183 ft | 521 kts | 99° |
| 2026-04-25 20:08 | 50.76410 | -9.37896 | 35183 ft | 521 kts | 98° |
| 2026-04-25 20:09 | 50.75598 | -9.26536 | 35182 ft | 521 kts | 99° |
| 2026-04-25 20:09 | 50.74773 | -9.15172 | 35183 ft | 521 kts | 99° |
| 2026-04-25 20:10 | 50.73943 | -9.03902 | 35183 ft | 522 kts | 99° |
| 2026-04-25 20:10 | 50.73096 | -8.92542 | 35183 ft | 522 kts | 99° |
| 2026-04-25 20:11 | 50.72234 | -8.81142 | 35183 ft | 523 kts | 99° |
| 2026-04-25 20:11 | 50.71357 | -8.69684 | 35183 ft | 523 kts | 99° |
| 2026-04-25 20:12 | 50.70457 | -8.58086 | 35183 ft | 522 kts | 99° |
| 2026-04-25 20:12 | 50.69710 | -8.48555 | 35183 ft | 523 kts | 99° |
| 2026-04-25 20:13 | 50.68653 | -8.35268 | 35183 ft | 523 kts | 99° |
| 2026-04-25 20:13 | 50.67740 | -8.23913 | 35183 ft | 523 kts | 99° |
| 2026-04-25 20:14 | 50.66815 | -8.12588 | 35184 ft | 522 kts | 99° |
| 2026-04-25 20:14 | 50.65927 | -8.01269 | 35186 ft | 523 kts | 97° |
| 2026-04-25 20:15 | 50.65548 | -7.89802 | 35194 ft | 525 kts | 93° |
| 2026-04-25 20:15 | 50.65350 | -7.78294 | 35202 ft | 525 kts | 93° |
| 2026-04-25 20:16 | 50.65142 | -7.66822 | 35208 ft | 525 kts | 93° |
| 2026-04-25 20:16 | 50.64912 | -7.55316 | 35210 ft | 525 kts | 93° |
| 2026-04-25 20:17 | 50.64667 | -7.43851 | 35211 ft | 525 kts | 93° |
| 2026-04-25 20:17 | 50.64410 | -7.32431 | 35210 ft | 524 kts | 94° |
| 2026-04-25 20:18 | 50.64141 | -7.20971 | 35211 ft | 524 kts | 94° |
| 2026-04-25 20:18 | 50.63860 | -7.09483 | 35211 ft | 525 kts | 93° |
| 2026-04-25 20:19 | 50.63569 | -6.98028 | 35212 ft | 525 kts | 93° |
| 2026-04-25 20:19 | 50.63266 | -6.86592 | 35211 ft | 525 kts | 93° |
| 2026-04-25 20:20 | 50.62952 | -6.75133 | 35212 ft | 525 kts | 93° |
| 2026-04-25 20:20 | 50.62626 | -6.63642 | 35211 ft | 524 kts | 93° |
| 2026-04-25 20:21 | 50.62290 | -6.52194 | 35211 ft | 524 kts | 93° |
| 2026-04-25 20:21 | 50.61943 | -6.40751 | 35211 ft | 525 kts | 93° |
| 2026-04-25 20:22 | 50.61644 | -6.31163 | 35209 ft | 525 kts | 94° |
| 2026-04-25 20:22 | 50.61215 | -6.17859 | 35211 ft | 526 kts | 94° |
| 2026-04-25 20:23 | 50.60834 | -6.06404 | 35212 ft | 526 kts | 94° |
| 2026-04-25 20:23 | 50.60440 | -5.94964 | 35212 ft | 525 kts | 93° |
| 2026-04-25 20:24 | 50.60036 | -5.83503 | 35212 ft | 524 kts | 93° |
| 2026-04-25 20:24 | 50.59628 | -5.72144 | 35211 ft | 524 kts | 93° |
| 2026-04-25 20:25 | 50.59204 | -5.60729 | 35211 ft | 524 kts | 93° |
| 2026-04-25 20:25 | 50.58772 | -5.49445 | 35212 ft | 524 kts | 93° |
| 2026-04-25 20:26 | 50.58326 | -5.38063 | 35211 ft | 523 kts | 93° |
| 2026-04-25 20:26 | 50.57873 | -5.26771 | 35210 ft | 523 kts | 94° |
| 2026-04-25 20:27 | 50.57418 | -5.15737 | 35211 ft | 522 kts | 94° |
| 2026-04-25 20:27 | 50.56939 | -5.04363 | 35212 ft | 522 kts | 94° |
| 2026-04-25 20:28 | 50.56454 | -4.93089 | 35212 ft | 521 kts | 94° |
| 2026-04-25 20:28 | 50.55958 | -4.81824 | 35212 ft | 520 kts | 94° |
| 2026-04-25 20:29 | 50.55452 | -4.70544 | 35212 ft | 519 kts | 94° |
| 2026-04-25 20:29 | 50.54938 | -4.59336 | 35211 ft | 519 kts | 94° |
| 2026-04-25 20:30 | 50.54412 | -4.48110 | 35211 ft | 519 kts | 94° |
| 2026-04-25 20:30 | 50.53877 | -4.36916 | 35212 ft | 518 kts | 93° |
| 2026-04-25 20:31 | 50.53338 | -4.25859 | 35211 ft | 518 kts | 94° |
| 2026-04-25 20:31 | 50.52781 | -4.14692 | 35212 ft | 517 kts | 94° |
| 2026-04-25 20:32 | 50.52326 | -4.03571 | 35211 ft | 517 kts | 90° |
| 2026-04-25 20:32 | 50.52528 | -3.92435 | 35212 ft | 514 kts | 84° |
| 2026-04-25 20:33 | 50.53482 | -3.81476 | 35212 ft | 513 kts | 78° |
| 2026-04-25 20:33 | 50.54530 | -3.72394 | 35212 ft | 513 kts | 78° |
| 2026-04-25 20:34 | 50.55982 | -3.59649 | 35211 ft | 513 kts | 78° |
| 2026-04-25 20:34 | 50.57241 | -3.48620 | 35211 ft | 513 kts | 76° |
| 2026-04-25 20:35 | 50.59011 | -3.37846 | 35212 ft | 511 kts | 71° |
| 2026-04-25 20:35 | 50.61015 | -3.27314 | 35210 ft | 511 kts | 71° |
| 2026-04-25 20:36 | 50.63027 | -3.16713 | 35212 ft | 511 kts | 72° |
| 2026-04-25 20:36 | 50.65018 | -3.06087 | 35212 ft | 510 kts | 72° |
| 2026-04-25 20:37 | 50.66952 | -2.95683 | 35211 ft | 510 kts | 72° |
| 2026-04-25 20:37 | 50.68829 | -2.85539 | 35211 ft | 510 kts | 72° |
| 2026-04-25 20:38 | 50.70794 | -2.74844 | 35211 ft | 511 kts | 72° |
| 2026-04-25 20:38 | 50.72721 | -2.64296 | 35211 ft | 510 kts | 72° |
| 2026-04-25 20:39 | 50.74625 | -2.53806 | 35211 ft | 510 kts | 72° |
| 2026-04-25 20:39 | 50.76133 | -2.45465 | 35211 ft | 510 kts | 72° |
| 2026-04-25 20:40 | 50.78186 | -2.34049 | 35210 ft | 510 kts | 72° |
| 2026-04-25 20:40 | 50.79877 | -2.24586 | 35211 ft | 510 kts | 72° |
| 2026-04-25 20:41 | 50.81681 | -2.14430 | 35212 ft | 510 kts | 72° |
| 2026-04-25 20:41 | 50.83276 | -2.05021 | 35212 ft | 510 kts | 76° |
| 2026-04-25 20:42 | 50.84435 | -1.94920 | 35218 ft | 510 kts | 79° |
| 2026-04-25 20:42 | 50.85496 | -1.84655 | 35224 ft | 509 kts | 79° |
| 2026-04-25 20:43 | 50.86617 | -1.74089 | 35229 ft | 509 kts | 78° |
| 2026-04-25 20:43 | 50.87717 | -1.63879 | 35233 ft | 509 kts | 78° |
| 2026-04-25 20:44 | 50.88813 | -1.53723 | 35235 ft | 509 kts | 78° |
| 2026-04-25 20:44 | 50.89924 | -1.43360 | 35235 ft | 509 kts | 78° |
| 2026-04-25 20:45 | 50.90993 | -1.33307 | 35234 ft | 509 kts | 79° |
| 2026-04-25 20:45 | 50.92007 | -1.23708 | 35235 ft | 509 kts | 79° |
| 2026-04-25 20:46 | 50.93041 | -1.13818 | 35234 ft | 508 kts | 79° |
| 2026-04-25 20:46 | 50.94158 | -1.03039 | 35231 ft | 508 kts | 79° |
| 2026-04-25 20:47 | 50.95282 | -0.92089 | 35225 ft | 508 kts | 79° |
| 2026-04-25 20:47 | 50.96389 | -0.81206 | 35220 ft | 509 kts | 79° |
| 2026-04-25 20:48 | 50.97513 | -0.70039 | 35216 ft | 509 kts | 79° |
| 2026-04-25 20:48 | 50.98666 | -0.58478 | 35214 ft | 509 kts | 79° |
| 2026-04-25 20:49 | 50.99765 | -0.47337 | 35213 ft | 509 kts | 79° |
| 2026-04-25 20:49 | 51.00875 | -0.35968 | 35212 ft | 509 kts | 79° |
| 2026-04-25 20:50 | 51.01906 | -0.25314 | 35213 ft | 509 kts | 80° |
| 2026-04-25 20:50 | 51.02990 | -0.13986 | 35214 ft | 509 kts | 80° |
| 2026-04-25 20:51 | 51.04154 | -0.01689 | 35218 ft | 509 kts | 80° |
| 2026-04-25 20:51 | 51.05228 | 0.09700 | 35227 ft | 505 kts | 81° |
| 2026-04-25 20:52 | 51.06070 | 0.18806 | 35231 ft | 504 kts | 81° |
| 2026-04-25 20:52 | 51.07228 | 0.31476 | 35234 ft | 504 kts | 81° |
| 2026-04-25 20:53 | 51.08220 | 0.42430 | 35236 ft | 504 kts | 81° |
| 2026-04-25 20:53 | 51.09208 | 0.53449 | 35236 ft | 504 kts | 81° |
| 2026-04-25 20:54 | 51.10163 | 0.64205 | 35237 ft | 505 kts | 81° |
| 2026-04-25 20:54 | 51.11095 | 0.74813 | 35237 ft | 505 kts | 82° |
| 2026-04-25 20:55 | 51.12038 | 0.85678 | 35237 ft | 505 kts | 82° |
| 2026-04-25 20:55 | 51.12970 | 0.96520 | 35237 ft | 505 kts | 82° |
| 2026-04-25 20:56 | 51.13901 | 1.07473 | 35238 ft | 505 kts | 82° |
| 2026-04-25 20:56 | 51.14825 | 1.18463 | 35238 ft | 505 kts | 82° |
| 2026-04-25 20:57 | 51.15689 | 1.29528 | 35238 ft | 505 kts | 84° |
| 2026-04-25 20:57 | 51.15947 | 1.40650 | 35238 ft | 505 kts | 91° |
| 2026-04-25 20:58 | 51.15524 | 1.51763 | 35239 ft | 505 kts | 94° |
| 2026-04-25 20:58 | 51.14962 | 1.62870 | 35238 ft | 505 kts | 94° |
| 2026-04-25 20:59 | 51.14404 | 1.73934 | 35237 ft | 505 kts | 95° |
| 2026-04-25 20:59 | 51.13847 | 1.84997 | 35237 ft | 506 kts | 95° |
| 2026-04-25 21:00 | 51.13372 | 1.94276 | 35237 ft | 506 kts | 95° |
| 2026-04-25 21:01 | 51.12401 | 2.12687 | 35238 ft | 506 kts | 95° |
| 2026-04-25 21:01 | 51.11802 | 2.23759 | 35238 ft | 506 kts | 95° |
| 2026-04-25 21:02 | 51.11194 | 2.34809 | 35238 ft | 507 kts | 95° |
| 2026-04-25 21:02 | 51.10577 | 2.45866 | 35238 ft | 507 kts | 95° |
| 2026-04-25 21:03 | 51.09954 | 2.56790 | 35238 ft | 507 kts | 95° |
| 2026-04-25 21:03 | 51.09011 | 2.67287 | 35237 ft | 506 kts | 102° |
| 2026-04-25 21:04 | 51.07597 | 2.76698 | 35238 ft | 506 kts | 105° |
| 2026-04-25 21:04 | 51.05851 | 2.87133 | 35237 ft | 507 kts | 105° |
| 2026-04-25 21:05 | 51.04025 | 2.97990 | 35237 ft | 507 kts | 105° |
| 2026-04-25 21:05 | 51.02229 | 3.08666 | 35238 ft | 507 kts | 105° |
| 2026-04-25 21:06 | 51.00415 | 3.19405 | 35238 ft | 507 kts | 105° |
| 2026-04-25 21:06 | 50.98645 | 3.29834 | 35238 ft | 507 kts | 105° |
| 2026-04-25 21:07 | 50.96970 | 3.39645 | 35238 ft | 507 kts | 105° |
| 2026-04-25 21:07 | 50.95316 | 3.49280 | 35239 ft | 508 kts | 105° |
| 2026-04-25 21:08 | 50.93481 | 3.59906 | 35239 ft | 508 kts | 105° |
| 2026-04-25 21:08 | 50.91765 | 3.69786 | 35237 ft | 508 kts | 106° |
| 2026-04-25 21:09 | 50.89393 | 3.83349 | 35237 ft | 508 kts | 106° |
| 2026-04-25 21:09 | 50.87679 | 3.93090 | 35238 ft | 509 kts | 106° |
| 2026-04-25 21:10 | 50.85972 | 4.02728 | 35237 ft | 510 kts | 106° |
| 2026-04-25 21:10 | 50.84192 | 4.12721 | 35237 ft | 511 kts | 106° |
| 2026-04-25 21:11 | 50.82379 | 4.22861 | 35237 ft | 511 kts | 106° |
| 2026-04-25 21:11 | 50.80488 | 4.33371 | 35237 ft | 511 kts | 106° |
| 2026-04-25 21:12 | 50.78545 | 4.44107 | 35237 ft | 511 kts | 106° |
| 2026-04-25 21:12 | 50.76896 | 4.53163 | 35237 ft | 512 kts | 106° |
| 2026-04-25 21:13 | 50.74564 | 4.65902 | 35237 ft | 512 kts | 107° |
| 2026-04-25 21:13 | 50.72883 | 4.75030 | 35237 ft | 512 kts | 107° |
| 2026-04-25 21:14 | 50.70897 | 4.85754 | 35238 ft | 512 kts | 106° |
| 2026-04-25 21:14 | 50.68961 | 4.96149 | 35235 ft | 513 kts | 106° |
| 2026-04-25 21:15 | 50.66990 | 5.06677 | 35229 ft | 513 kts | 106° |
| 2026-04-25 21:15 | 50.65012 | 5.17181 | 35222 ft | 513 kts | 106° |
| 2026-04-25 21:16 | 50.62991 | 5.27851 | 35218 ft | 514 kts | 106° |
| 2026-04-25 21:16 | 50.60945 | 5.38590 | 35215 ft | 514 kts | 106° |
| 2026-04-25 21:17 | 50.59095 | 5.48255 | 35214 ft | 515 kts | 106° |
| 2026-04-25 21:17 | 50.57027 | 5.58996 | 35213 ft | 515 kts | 106° |
| 2026-04-25 21:18 | 50.55198 | 5.68445 | 35212 ft | 516 kts | 107° |
| 2026-04-25 21:18 | 50.53347 | 5.77965 | 35213 ft | 516 kts | 107° |
| 2026-04-25 21:19 | 50.51322 | 5.88324 | 35211 ft | 516 kts | 107° |
| 2026-04-25 21:19 | 50.49171 | 5.99265 | 35206 ft | 517 kts | 107° |
| 2026-04-25 21:20 | 50.47467 | 6.07884 | 35199 ft | 518 kts | 107° |
| 2026-04-25 21:20 | 50.44840 | 6.21113 | 35192 ft | 518 kts | 107° |
| 2026-04-25 21:21 | 50.42766 | 6.31486 | 35189 ft | 518 kts | 107° |
| 2026-04-25 21:21 | 50.40949 | 6.42003 | 35187 ft | 517 kts | 101° |
| 2026-04-25 21:22 | 50.39412 | 6.53120 | 35186 ft | 517 kts | 101° |
| 2026-04-25 21:22 | 50.37878 | 6.64296 | 35186 ft | 516 kts | 101° |
| 2026-04-25 21:23 | 50.36544 | 6.73896 | 35184 ft | 516 kts | 102° |
| 2026-04-25 21:23 | 50.35156 | 6.83765 | 35185 ft | 516 kts | 102° |
| 2026-04-25 21:24 | 50.33651 | 6.94384 | 35185 ft | 517 kts | 101° |
| 2026-04-25 21:24 | 50.32167 | 7.04782 | 35185 ft | 516 kts | 101° |
| 2026-04-25 21:25 | 50.30668 | 7.15219 | 35185 ft | 517 kts | 101° |
| 2026-04-25 21:25 | 50.29127 | 7.25876 | 35185 ft | 517 kts | 101° |
| 2026-04-25 21:26 | 50.28217 | 7.32133 | 35185 ft | 517 kts | 101° |
| 2026-04-25 21:26 | 50.26848 | 7.41502 | 35186 ft | 516 kts | 101° |
| 2026-04-25 21:27 | 50.25278 | 7.52173 | 35186 ft | 516 kts | 101° |
| 2026-04-25 21:27 | 50.23598 | 7.63510 | 35186 ft | 516 kts | 101° |
| 2026-04-25 21:28 | 50.22182 | 7.73020 | 35184 ft | 516 kts | 102° |
| 2026-04-25 21:28 | 50.20657 | 7.83200 | 35185 ft | 516 kts | 102° |
| 2026-04-25 21:29 | 50.19063 | 7.93774 | 35185 ft | 516 kts | 102° |
| 2026-04-25 21:29 | 50.17444 | 8.04451 | 35184 ft | 516 kts | 102° |
| 2026-04-25 21:30 | 50.15851 | 8.14884 | 35179 ft | 516 kts | 102° |
| 2026-04-25 21:30 | 50.14539 | 8.23422 | 35173 ft | 516 kts | 102° |
| 2026-04-25 21:31 | 50.12528 | 8.36428 | 35166 ft | 517 kts | 102° |
| 2026-04-25 21:31 | 50.10972 | 8.46420 | 35163 ft | 517 kts | 102° |
| 2026-04-25 21:32 | 50.09362 | 8.56698 | 35161 ft | 518 kts | 102° |
| 2026-04-25 21:32 | 50.07260 | 8.66037 | 35157 ft | 520 kts | 118° |
| 2026-04-25 21:33 | 50.03743 | 8.74100 | 35160 ft | 521 kts | 127° |
| 2026-04-25 21:33 | 49.99574 | 8.82679 | 35159 ft | 521 kts | 127° |
| 2026-04-25 21:34 | 49.95051 | 8.92065 | 35159 ft | 520 kts | 127° |
| 2026-04-25 21:34 | 49.90294 | 9.02025 | 35155 ft | 520 kts | 126° |
| 2026-04-25 21:35 | 49.86458 | 9.10067 | 35151 ft | 521 kts | 126° |
| 2026-04-25 21:35 | 49.81931 | 9.19532 | 35147 ft | 521 kts | 126° |
| 2026-04-25 21:36 | 49.77180 | 9.29432 | 35147 ft | 522 kts | 126° |
| 2026-04-25 21:36 | 49.72609 | 9.38921 | 35150 ft | 522 kts | 126° |
| 2026-04-25 21:37 | 49.68826 | 9.46748 | 35153 ft | 522 kts | 126° |
| 2026-04-25 21:37 | 49.63379 | 9.57975 | 35155 ft | 523 kts | 126° |
| 2026-04-25 21:38 | 49.59002 | 9.66967 | 35155 ft | 523 kts | 127° |
| 2026-04-25 21:38 | 49.54777 | 9.75615 | 35157 ft | 523 kts | 127° |
| 2026-04-25 21:39 | 49.50297 | 9.84755 | 35157 ft | 523 kts | 127° |
| 2026-04-25 21:39 | 49.45817 | 9.93863 | 35156 ft | 523 kts | 127° |
| 2026-04-25 21:40 | 49.41451 | 10.02710 | 35152 ft | 522 kts | 127° |
| 2026-04-25 21:40 | 49.36989 | 10.11720 | 35145 ft | 523 kts | 127° |
| 2026-04-25 21:41 | 49.32625 | 10.20506 | 35139 ft | 523 kts | 127° |
| 2026-04-25 21:41 | 49.28330 | 10.29123 | 35135 ft | 522 kts | 127° |
| 2026-04-25 21:42 | 49.24000 | 10.37506 | 35132 ft | 522 kts | 131° |
| 2026-04-25 21:42 | 49.18955 | 10.45368 | 35133 ft | 522 kts | 136° |
| 2026-04-25 21:43 | 49.13800 | 10.52927 | 35135 ft | 522 kts | 136° |
| 2026-04-25 21:43 | 49.08667 | 10.60482 | 35136 ft | 521 kts | 136° |
| 2026-04-25 21:44 | 49.04005 | 10.67353 | 35136 ft | 521 kts | 137° |
| 2026-04-25 21:45 | 48.96107 | 10.78959 | 35137 ft | 521 kts | 136° |
| 2026-04-25 21:45 | 48.91054 | 10.86365 | 35137 ft | 521 kts | 136° |
| 2026-04-25 21:46 | 48.86318 | 10.93291 | 35137 ft | 521 kts | 136° |
| 2026-04-25 21:46 | 48.81317 | 11.00585 | 35136 ft | 520 kts | 136° |
| 2026-04-25 21:47 | 48.76791 | 11.08579 | 35130 ft | 520 kts | 120° |
| 2026-04-25 21:47 | 48.75243 | 11.13338 | 35132 ft | 518 kts | 109° |
| 2026-04-25 21:47 | 48.74272 | 11.18152 | 35135 ft | 516 kts | 102° |
| 2026-04-25 21:48 | 48.72809 | 11.28453 | 35134 ft | 516 kts | 99° |
| 2026-04-25 21:48 | 48.71327 | 11.39101 | 35132 ft | 515 kts | 100° |
| 2026-04-25 21:49 | 48.69826 | 11.49394 | 35132 ft | 515 kts | 100° |
| 2026-04-25 21:49 | 48.68268 | 11.59823 | 35131 ft | 515 kts | 101° |
| 2026-04-25 21:50 | 48.66771 | 11.69734 | 35130 ft | 515 kts | 101° |
| 2026-04-25 21:50 | 48.65187 | 11.80152 | 35132 ft | 515 kts | 101° |
| 2026-04-25 21:51 | 48.63615 | 11.90422 | 35130 ft | 514 kts | 101° |
| 2026-04-25 21:51 | 48.62019 | 12.00774 | 35126 ft | 514 kts | 101° |
| 2026-04-25 21:52 | 48.60411 | 12.11136 | 35122 ft | 515 kts | 101° |
| 2026-04-25 21:52 | 48.58783 | 12.21568 | 35119 ft | 515 kts | 101° |
| 2026-04-25 21:53 | 48.57188 | 12.31728 | 35119 ft | 516 kts | 101° |
| 2026-04-25 21:53 | 48.55509 | 12.42340 | 34797 ft | 515 kts | 101° |
| 2026-04-25 21:53 | 48.54681 | 12.47537 | 34399 ft | 511 kts | 101° |
| 2026-04-25 21:54 | 48.53856 | 12.52706 | 34000 ft | 507 kts | 101° |
| 2026-04-25 21:54 | 48.53042 | 12.57805 | 33604 ft | 504 kts | 101° |
| 2026-04-25 21:54 | 48.52240 | 12.62815 | 33232 ft | 500 kts | 101° |
| 2026-04-25 21:54 | 48.51489 | 12.67498 | 33117 ft | 497 kts | 102° |
| 2026-04-25 21:55 | 48.50643 | 12.72757 | 33121 ft | 500 kts | 102° |
| 2026-04-25 21:55 | 48.49026 | 12.82756 | 33125 ft | 501 kts | 102° |
| 2026-04-25 21:56 | 48.47417 | 12.92631 | 33127 ft | 501 kts | 102° |
| 2026-04-25 21:56 | 48.45804 | 13.02506 | 33126 ft | 489 kts | 102° |
| 2026-04-25 21:57 | 48.44210 | 13.12226 | 33126 ft | 488 kts | 102° |
| 2026-04-25 21:57 | 48.42734 | 13.21691 | 33088 ft | 487 kts | 98° |
| 2026-04-25 21:57 | 48.42221 | 13.26680 | 32663 ft | 486 kts | 95° |
| 2026-04-25 21:58 | 48.41923 | 13.31591 | 32176 ft | 484 kts | 91° |
| 2026-04-25 21:58 | 48.41812 | 13.36499 | 31690 ft | 482 kts | 88° |
| 2026-04-25 21:58 | 48.41886 | 13.41491 | 31167 ft | 476 kts | 85° |
| 2026-04-25 21:58 | 48.42127 | 13.46383 | 30658 ft | 468 kts | 83° |
| 2026-04-25 21:59 | 48.42419 | 13.51179 | 30162 ft | 462 kts | 83° |
| 2026-04-25 21:59 | 48.42715 | 13.55957 | 29664 ft | 461 kts | 83° |
| 2026-04-25 21:59 | 48.42991 | 13.60517 | 29188 ft | 459 kts | 83° |
| 2026-04-25 22:00 | 48.43538 | 13.69927 | 28194 ft | 452 kts | 84° |
| 2026-04-25 22:00 | 48.43803 | 13.74608 | 27695 ft | 449 kts | 84° |
| 2026-04-25 22:00 | 48.44061 | 13.79228 | 27204 ft | 446 kts | 84° |
| 2026-04-25 22:00 | 48.44314 | 13.83809 | 26881 ft | 444 kts | 84° |
| 2026-04-25 22:01 | 48.44567 | 13.88406 | 26583 ft | 443 kts | 84° |
| 2026-04-25 22:01 | 48.44816 | 13.92976 | 26286 ft | 441 kts | 84° |
| 2026-04-25 22:01 | 48.45063 | 13.97535 | 25989 ft | 439 kts | 84° |
| 2026-04-25 22:01 | 48.45226 | 14.00578 | 25789 ft | 438 kts | 84° |
| 2026-04-25 22:02 | 48.45549 | 14.06630 | 25392 ft | 436 kts | 84° |
| 2026-04-25 22:02 | 48.45785 | 14.11084 | 25098 ft | 435 kts | 84° |
| 2026-04-25 22:02 | 48.46018 | 14.15553 | 24803 ft | 433 kts | 84° |
| 2026-04-25 22:02 | 48.46250 | 14.20016 | 24506 ft | 431 kts | 84° |
| 2026-04-25 22:03 | 48.46475 | 14.24381 | 24214 ft | 429 kts | 84° |
| 2026-04-25 22:03 | 48.46699 | 14.28781 | 23919 ft | 427 kts | 83° |
| 2026-04-25 22:03 | 48.46923 | 14.33173 | 23684 ft | 426 kts | 83° |
| 2026-04-25 22:03 | 48.47148 | 14.37619 | 23433 ft | 424 kts | 83° |
| 2026-04-25 22:04 | 48.47369 | 14.42021 | 23185 ft | 423 kts | 83° |
| 2026-04-25 22:04 | 48.47587 | 14.46390 | 22936 ft | 420 kts | 83° |
| 2026-04-25 22:04 | 48.47801 | 14.50744 | 22685 ft | 418 kts | 83° |
| 2026-04-25 22:04 | 48.48014 | 14.55091 | 22436 ft | 417 kts | 83° |
| 2026-04-25 22:05 | 48.48225 | 14.59424 | 22187 ft | 415 kts | 83° |
| 2026-04-25 22:05 | 48.48433 | 14.63742 | 21937 ft | 414 kts | 83° |
| 2026-04-25 22:05 | 48.48637 | 14.67984 | 21689 ft | 413 kts | 84° |
| 2026-04-25 22:05 | 48.48837 | 14.72177 | 21443 ft | 411 kts | 84° |
| 2026-04-25 22:06 | 48.49035 | 14.76375 | 21198 ft | 410 kts | 84° |
| 2026-04-25 22:06 | 48.49231 | 14.80563 | 20953 ft | 408 kts | 84° |
| 2026-04-25 22:06 | 48.49425 | 14.84753 | 20707 ft | 407 kts | 84° |
| 2026-04-25 22:06 | 48.49619 | 14.88958 | 20457 ft | 405 kts | 84° |
| 2026-04-25 22:07 | 48.49810 | 14.93136 | 20207 ft | 400 kts | 84° |
| 2026-04-25 22:07 | 48.49934 | 14.95869 | 20042 ft | 396 kts | 84° |
| 2026-04-25 22:07 | 48.50172 | 15.01167 | 19679 ft | 381 kts | 84° |
| 2026-04-25 22:07 | 48.50346 | 15.05083 | 19433 ft | 378 kts | 84° |
| 2026-04-25 22:08 | 48.50520 | 15.08996 | 19185 ft | 378 kts | 84° |
| 2026-04-25 22:08 | 48.50694 | 15.12922 | 18954 ft | 376 kts | 84° |
| 2026-04-25 22:08 | 48.50864 | 15.16785 | 18709 ft | 372 kts | 84° |
| 2026-04-25 22:08 | 48.51029 | 15.20587 | 18421 ft | 369 kts | 84° |
| 2026-04-25 22:09 | 48.51195 | 15.24467 | 18118 ft | 367 kts | 84° |
| 2026-04-25 22:09 | 48.51358 | 15.28279 | 17801 ft | 365 kts | 84° |
| 2026-04-25 22:09 | 48.51518 | 15.32068 | 17421 ft | 363 kts | 84° |
| 2026-04-25 22:09 | 48.51676 | 15.35838 | 17047 ft | 360 kts | 84° |
| 2026-04-25 22:10 | 48.51830 | 15.39580 | 16641 ft | 358 kts | 85° |
| 2026-04-25 22:10 | 48.51901 | 15.43310 | 16214 ft | 356 kts | 88° |
| 2026-04-25 22:10 | 48.51837 | 15.47017 | 15789 ft | 353 kts | 91° |
| 2026-04-25 22:10 | 48.51654 | 15.50714 | 15353 ft | 349 kts | 93° |
| 2026-04-25 22:11 | 48.51443 | 15.54355 | 14929 ft | 349 kts | 94° |
| 2026-04-25 22:11 | 48.51233 | 15.57972 | 14504 ft | 346 kts | 94° |
| 2026-04-25 22:11 | 48.51000 | 15.61548 | 14079 ft | 344 kts | 99° |
| 2026-04-25 22:11 | 48.50366 | 15.65012 | 13652 ft | 342 kts | 110° |
| 2026-04-25 22:12 | 48.49530 | 15.68302 | 13327 ft | 338 kts | 112° |
| 2026-04-25 22:12 | 48.48672 | 15.71563 | 13225 ft | 330 kts | 112° |
| 2026-04-25 22:12 | 48.47852 | 15.74767 | 13122 ft | 321 kts | 111° |
| 2026-04-25 22:12 | 48.47341 | 15.76813 | 13055 ft | 317 kts | 111° |
| 2026-04-25 22:13 | 48.46328 | 15.80964 | 12997 ft | 318 kts | 110° |
| 2026-04-25 22:13 | 48.45577 | 15.84091 | 12996 ft | 318 kts | 110° |
| 2026-04-25 22:13 | 48.44833 | 15.87211 | 12995 ft | 318 kts | 110° |
| 2026-04-25 22:13 | 48.44085 | 15.90352 | 12995 ft | 318 kts | 110° |
| 2026-04-25 22:14 | 48.43340 | 15.93483 | 12995 ft | 318 kts | 110° |
| 2026-04-25 22:14 | 48.42595 | 15.96614 | 12996 ft | 318 kts | 110° |
| 2026-04-25 22:14 | 48.41846 | 15.99758 | 12997 ft | 319 kts | 110° |
| 2026-04-25 22:14 | 48.41097 | 16.02898 | 12997 ft | 319 kts | 110° |
| 2026-04-25 22:15 | 48.40345 | 16.06045 | 12998 ft | 320 kts | 110° |
| 2026-04-25 22:15 | 48.39599 | 16.09158 | 12995 ft | 320 kts | 110° |
| 2026-04-25 22:15 | 48.38841 | 16.12321 | 12705 ft | 323 kts | 110° |
| 2026-04-25 22:16 | 48.37323 | 16.18647 | 11942 ft | 322 kts | 110° |
| 2026-04-25 22:16 | 48.36558 | 16.21823 | 11634 ft | 324 kts | 110° |
| 2026-04-25 22:16 | 48.35803 | 16.24953 | 11328 ft | 319 kts | 110° |
| 2026-04-25 22:16 | 48.35053 | 16.28058 | 11031 ft | 316 kts | 110° |
| 2026-04-25 22:17 | 48.34312 | 16.31123 | 10783 ft | 310 kts | 110° |
| 2026-04-25 22:17 | 48.33584 | 16.34133 | 10549 ft | 304 kts | 110° |
| 2026-04-25 22:17 | 48.32866 | 16.37095 | 10332 ft | 300 kts | 109° |
| 2026-04-25 22:17 | 48.32153 | 16.40033 | 10083 ft | 294 kts | 109° |
| 2026-04-25 22:18 | 48.31457 | 16.42895 | 9876 ft | 292 kts | 109° |
| 2026-04-25 22:18 | 48.30760 | 16.45756 | 9653 ft | 292 kts | 109° |
| 2026-04-25 22:18 | 48.30052 | 16.48550 | 9430 ft | 290 kts | 116° |
| 2026-04-25 22:18 | 48.28984 | 16.51023 | 9159 ft | 279 kts | 134° |
| 2026-04-25 22:19 | 48.27569 | 16.52911 | 8962 ft | 273 kts | 145° |
| 2026-04-25 22:19 | 48.26041 | 16.54586 | 8744 ft | 273 kts | 147° |
| 2026-04-25 22:19 | 48.24501 | 16.56236 | 8520 ft | 272 kts | 147° |
| 2026-04-25 22:19 | 48.22984 | 16.57894 | 8296 ft | 271 kts | 146° |
| 2026-04-25 22:20 | 48.21472 | 16.59574 | 8072 ft | 270 kts | 146° |
| 2026-04-25 22:20 | 48.19972 | 16.61257 | 7753 ft | 273 kts | 145° |
| 2026-04-25 22:20 | 48.18555 | 16.63183 | 7356 ft | 280 kts | 131° |
| 2026-04-25 22:20 | 48.17464 | 16.65570 | 6939 ft | 280 kts | 119° |
| 2026-04-25 22:21 | 48.16617 | 16.68094 | 6687 ft | 270 kts | 116° |
| 2026-04-25 22:21 | 48.15822 | 16.70626 | 6485 ft | 266 kts | 116° |
| 2026-04-25 22:21 | 48.15038 | 16.73105 | 6243 ft | 261 kts | 116° |
| 2026-04-25 22:21 | 48.14260 | 16.75516 | 6014 ft | 255 kts | 117° |
| 2026-04-25 22:22 | 48.13484 | 16.77880 | 5799 ft | 253 kts | 117° |
| 2026-04-25 22:22 | 48.12708 | 16.80227 | 5576 ft | 252 kts | 117° |
| 2026-04-25 22:22 | 48.11934 | 16.82556 | 5347 ft | 249 kts | 117° |
| 2026-04-25 22:22 | 48.11175 | 16.84840 | 5103 ft | 244 kts | 117° |
| 2026-04-25 22:23 | 48.10422 | 16.87104 | 4890 ft | 239 kts | 117° |
| 2026-04-25 22:23 | 48.09687 | 16.89313 | 4676 ft | 236 kts | 117° |
| 2026-04-25 22:23 | 48.08960 | 16.91497 | 4453 ft | 235 kts | 117° |
| 2026-04-25 22:23 | 48.08235 | 16.93672 | 4228 ft | 233 kts | 117° |
| 2026-04-25 22:24 | 48.07517 | 16.95824 | 4030 ft | 231 kts | 117° |
| 2026-04-25 22:24 | 48.06804 | 16.97963 | 3999 ft | 231 kts | 117° |
| 2026-04-25 22:24 | 48.06084 | 17.00115 | 3998 ft | 232 kts | 117° |
| 2026-04-25 22:24 | 48.05363 | 17.02274 | 3996 ft | 232 kts | 117° |
| 2026-04-25 22:25 | 48.04644 | 17.04425 | 3996 ft | 232 kts | 117° |
| 2026-04-25 22:25 | 48.03941 | 17.06522 | 3985 ft | 219 kts | 117° |
| 2026-04-25 22:25 | 48.03280 | 17.08497 | 3984 ft | 209 kts | 116° |
| 2026-04-25 22:25 | 48.02626 | 17.10444 | 3994 ft | 210 kts | 116° |
| 2026-04-25 22:26 | 48.01977 | 17.12376 | 3886 ft | 207 kts | 116° |
| 2026-04-25 22:26 | 48.01339 | 17.14274 | 3698 ft | 201 kts | 117° |
| 2026-04-25 22:26 | 48.00520 | 17.15945 | 3544 ft | 201 kts | 140° |
| 2026-04-25 22:26 | 47.99324 | 17.16972 | 3396 ft | 198 kts | 166° |
| 2026-04-25 22:27 | 47.98034 | 17.17159 | 3234 ft | 191 kts | 190° |
| 2026-04-25 22:27 | 47.96763 | 17.16572 | 3039 ft | 185 kts | 208° |
| 2026-04-25 22:27 | 47.95619 | 17.15703 | 3001 ft | 184 kts | 211° |
| 2026-04-25 22:27 | 47.94548 | 17.14701 | 2994 ft | 180 kts | 225° |
| 2026-04-25 22:28 | 47.93797 | 17.13262 | 2993 ft | 176 kts | 246° |
| 2026-04-25 22:28 | 47.93462 | 17.11530 | 2994 ft | 173 kts | 267° |
| 2026-04-25 22:28 | 47.93578 | 17.09767 | 2994 ft | 172 kts | 287° |
| 2026-04-25 22:28 | 47.94037 | 17.08160 | 2999 ft | 172 kts | 296° |
| 2026-04-25 22:29 | 47.94560 | 17.06627 | 2997 ft | 172 kts | 297° |
| 2026-04-25 22:29 | 47.95110 | 17.05044 | 2995 ft | 172 kts | 297° |
| 2026-04-25 22:29 | 47.95648 | 17.03477 | 2995 ft | 172 kts | 296° |
| 2026-04-25 22:30 | 47.96717 | 17.00320 | 2995 ft | 172 kts | 296° |
| 2026-04-25 22:30 | 47.97246 | 16.98746 | 2992 ft | 169 kts | 296° |
| 2026-04-25 22:30 | 47.97743 | 16.97263 | 2971 ft | 157 kts | 296° |
| 2026-04-25 22:30 | 47.98064 | 16.96307 | 2979 ft | 156 kts | 296° |
| 2026-04-25 22:31 | 47.98689 | 16.94436 | 2991 ft | 156 kts | 296° |
| 2026-04-25 22:31 | 47.99167 | 16.93007 | 2993 ft | 156 kts | 296° |
| 2026-04-25 22:31 | 47.99629 | 16.91623 | 2994 ft | 156 kts | 296° |
| 2026-04-25 22:31 | 48.00097 | 16.90222 | 2995 ft | 156 kts | 296° |
| 2026-04-25 22:32 | 48.00569 | 16.88797 | 2995 ft | 154 kts | 296° |
| 2026-04-25 22:32 | 48.01022 | 16.87440 | 2995 ft | 154 kts | 296° |
| 2026-04-25 22:32 | 48.01481 | 16.86063 | 2996 ft | 154 kts | 296° |
| 2026-04-25 22:32 | 48.01913 | 16.84768 | 2996 ft | 154 kts | 296° |
| 2026-04-25 22:33 | 48.02414 | 16.83259 | 2996 ft | 154 kts | 296° |
| 2026-04-25 22:33 | 48.02885 | 16.81846 | 2997 ft | 154 kts | 296° |
| 2026-04-25 22:33 | 48.03346 | 16.80457 | 2997 ft | 154 kts | 296° |
| 2026-04-25 22:33 | 48.03802 | 16.79098 | 2997 ft | 154 kts | 296° |
| 2026-04-25 22:34 | 48.04279 | 16.77698 | 2970 ft | 154 kts | 296° |
| 2026-04-25 22:34 | 48.04767 | 16.76277 | 2836 ft | 152 kts | 296° |
| 2026-04-25 22:34 | 48.05239 | 16.74910 | 2631 ft | 147 kts | 297° |
| 2026-04-25 22:34 | 48.05699 | 16.73588 | 2429 ft | 146 kts | 296° |
| 2026-04-25 22:35 | 48.06146 | 16.72244 | 2210 ft | 146 kts | 295° |
| 2026-04-25 22:35 | 48.06566 | 16.70953 | 2033 ft | 146 kts | 296° |
| 2026-04-25 22:35 | 48.06991 | 16.69643 | 1872 ft | 147 kts | 294° |
| 2026-04-25 22:35 | 48.07413 | 16.68291 | 1800 ft | 147 kts | 294° |
| 2026-04-25 22:36 | 48.07844 | 16.66938 | 1673 ft | 147 kts | 294° |
| 2026-04-25 22:36 | 48.08234 | 16.65740 | 1648 ft | 147 kts | 294° |
| 2026-04-25 22:36 | 48.08648 | 16.64499 | 1530 ft | 147 kts | 295° |
| 2026-04-25 22:36 | 48.09056 | 16.63218 | 1339 ft | 145 kts | 296° |
| 2026-04-25 22:37 | 48.09484 | 16.61899 | 1247 ft | 146 kts | 295° |
| 2026-04-25 22:37 | 48.09903 | 16.60616 | 1112 ft | 145 kts | 295° |
| 2026-04-25 22:37 | 48.10315 | 16.59346 | 907 ft | 145 kts | 294° |
| 2026-04-25 22:37 | 48.10716 | 16.58111 | 726 ft | 144 kts | 296° |
| 2026-04-25 22:38 | 48.11107 | 16.56918 | 615 ft | 132 kts | 295° |
| 2026-04-25 22:38 | 48.11399 | 16.56028 | 596 ft | 81 kts | 300° |
| 2026-04-25 22:38 | 48.11576 | 16.55515 | 591 ft | 41 kts | 296° |
| 2026-04-25 22:38 | 48.11676 | 16.55232 | 592 ft | 28 kts | 296° |
| 2026-04-25 22:39 | 48.11774 | 16.54910 | 592 ft | 32 kts | 297° |
| 2026-04-25 22:39 | 48.11884 | 16.54681 | 588 ft | 21 kts | 317° |
| 2026-04-25 22:39 | 48.11928 | 16.54627 | 587 ft | 0 kts | 324° |
| 2026-04-25 22:41 | 48.11930 | 16.54625 | 587 ft | 3 kts | 324° |
| 2026-04-25 22:41 | 48.11998 | 16.54559 | 586 ft | 19 kts | 335° |
| 2026-04-25 22:41 | 48.12071 | 16.54594 | 584 ft | 18 kts | 74° |
| 2026-04-25 22:41 | 48.12034 | 16.54712 | 586 ft | 14 kts | 118° |
| 2026-04-25 22:42 | 48.11977 | 16.54904 | 589 ft | 23 kts | 114° |
| 2026-04-25 22:42 | 48.11921 | 16.55091 | 590 ft | 23 kts | 115° |
| 2026-04-25 22:42 | 48.11856 | 16.55293 | 592 ft | 26 kts | 116° |
| 2026-04-25 22:42 | 48.11788 | 16.55500 | 591 ft | 21 kts | 117° |
| 2026-04-25 22:43 | 48.11725 | 16.55690 | 592 ft | 20 kts | 116° |
| 2026-04-25 22:43 | 48.11670 | 16.55860 | 592 ft | 15 kts | 116° |
| 2026-04-25 22:43 | 48.11667 | 16.55963 | 594 ft | 9 kts | 58° |
| 2026-04-25 22:43 | 48.11688 | 16.56014 | 596 ft | 4 kts | 73° |
| 2026-04-25 22:44 | 48.11695 | 16.56053 | 596 ft | 4 kts | 62° |
| 2026-04-25 22:44 | 48.11718 | 16.56088 | 597 ft | 6 kts | 33° |
| 2026-04-25 22:44 | 48.11737 | 16.56105 | 597 ft | 2 kts | 32° |
| 2026-04-25 22:44 | 48.11754 | 16.56116 | 598 ft | 2 kts | 25° |
| 2026-04-25 22:45 | 48.11759 | 16.56120 | 598 ft | 0 kts | 25° |